Observation data for Sweetwater on 08/14/2019      Previous  Date  Next       Current Mesonet Observations  Soil Data  Daily Summary Page  Observations in Plain Language
KSW1 140500Z 06011KT 29/21 A3005 RMK A01 T02890208  RH  062%=      5-min Rain = 0
KSW1 140501Z 06011KT 29/21 A3005 RMK A01 T02880208  RH  062%=      5-min Rain = 0
KSW1 140502Z 06011KT 29/21 A3005 RMK A01 T02880208  RH  062%=      5-min Rain = 0
KSW1 140503Z 06013KT 29/21 A3005 RMK A01 T02880207  RH  062%=      5-min Rain = 0
KSW1 140504Z 05011KT 29/21 A3005 RMK A01 T02890207  RH  061%=      5-min Rain = 0
KSW1 140505Z 05010KT 29/21 A3005 RMK A01 T02890207  RH  061%=      5-min Rain = 0
KSW1 140506Z 05013KT 29/21 A3006 RMK A01 T02890206  RH  061%=      5-min Rain = 0
KSW1 140507Z 06012KT 29/21 A3006 RMK A01 T02890205  RH  061%=      5-min Rain = 0
KSW1 140508Z 05012KT 29/21 A3006 RMK A01 T02890205  RH  060%=      5-min Rain = 0
KSW1 140509Z 05014KT 29/20 A3006 RMK A01 T02890204  RH  060%=      5-min Rain = 0
KSW1 140510Z 05012KT 29/20 A3006 RMK A01 T02890204  RH  060%=      5-min Rain = 0
KSW1 140524Z 06010KT 29/20 A3005 RMK A01 T02870202  RH  060%=      5-min Rain = 0
KSW1 140525Z 05011KT 29/20 A3005 RMK A01 T02860202  RH  060%=      5-min Rain = 0
KSW1 140526Z 05010KT 29/20 A3005 RMK A01 T02860202  RH  060%=      5-min Rain = 0
KSW1 140527Z 05011KT 29/20 A3005 RMK A01 T02860202  RH  060%=      5-min Rain = 0
KSW1 140528Z 05011KT 29/20 A3005 RMK A01 T02860202  RH  060%=      5-min Rain = 0
KSW1 140529Z 05011KT 29/20 A3006 RMK A01 T02850202  RH  061%=      5-min Rain = 0
KSW1 140530Z 05012KT 29/20 A3006 RMK A01 T02850202  RH  061%=      5-min Rain = 0
KSW1 140531Z 04011KT 29/20 A3006 RMK A01 T02850202  RH  061%=      5-min Rain = 0
KSW1 140532Z 04011KT 29/20 A3006 RMK A01 T02850202  RH  061%=      5-min Rain = 0
KSW1 140533Z 04010KT 29/20 A3006 RMK A01 T02850202  RH  061%=      5-min Rain = 0
KSW1 140534Z 04011KT 29/20 A3006 RMK A01 T02850202  RH  061%=      5-min Rain = 0
KSW1 140535Z 04011KT 28/20 A3006 RMK A01 T02840203  RH  061%=      5-min Rain = 0
KSW1 140536Z 04011KT 28/20 A3006 RMK A01 T02840203  RH  061%=      5-min Rain = 0
KSW1 140537Z 04011KT 28/20 A3006 RMK A01 T02840203  RH  061%=      5-min Rain = 0
KSW1 140538Z 04013KT 28/20 A3006 RMK A01 T02840203  RH  062%=      5-min Rain = 0
KSW1 140539Z 04011KT 28/20 A3006 RMK A01 T02840203  RH  062%=      5-min Rain = 0
KSW1 140540Z 05012KT 28/20 A3006 RMK A01 T02840204  RH  062%=      5-min Rain = 0
KSW1 140541Z 04011KT 28/20 A3006 RMK A01 T02840204  RH  062%=      5-min Rain = 0
KSW1 140542Z 04011KT 28/20 A3006 RMK A01 T02840204  RH  062%=      5-min Rain = 0
KSW1 140543Z 04010KT 28/20 A3006 RMK A01 T02840204  RH  062%=      5-min Rain = 0
KSW1 140544Z 04011KT 28/21 A3006 RMK A01 T02840205  RH  062%=      5-min Rain = 0
KSW1 140545Z 04012KT 28/21 A3006 RMK A01 T02830205  RH  062%=      5-min Rain = 0
KSW1 140546Z 04012KT 28/21 A3006 RMK A01 T02830205  RH  063%=      5-min Rain = 0
KSW1 140547Z 04012KT 28/21 A3006 RMK A01 T02830205  RH  063%=      5-min Rain = 0
KSW1 140548Z 04010KT 28/21 A3006 RMK A01 T02830206  RH  063%=      5-min Rain = 0
KSW1 140549Z 04013KT 28/21 A3006 RMK A01 T02830206  RH  063%=      5-min Rain = 0
KSW1 140550Z 04014KT 28/21 A3006 RMK A01 T02830206  RH  063%=      5-min Rain = 0
KSW1 140551Z 04012G17KT 28/21 A3006 RMK A01 T02820206  RH  063%=      5-min Rain = 0
KSW1 140552Z 05015KT 28/21 A3006 RMK A01 T02820205  RH  063%=      5-min Rain = 0
KSW1 140553Z 04013KT 28/21 A3006 RMK A01 T02820205  RH  063%=      5-min Rain = 0
KSW1 140554Z 05012KT 28/21 A3006 RMK A01 T02820205  RH  063%=      5-min Rain = 0
KSW1 140555Z 04012G17KT 28/21 A3006 RMK A01 T02810205  RH  063%=      5-min Rain = 0
KSW1 140556Z 04012KT 28/21 A3006 RMK A01 T02810205  RH  063%=      5-min Rain = 0
KSW1 140557Z 05012KT 28/21 A3006 RMK A01 T02810205  RH  063%=      5-min Rain = 0
KSW1 140558Z 05014KT 28/21 A3006 RMK A01 T02800205  RH  064%=      5-min Rain = 0
KSW1 140559Z 05012KT 28/21 A3006 RMK A01 T02800205  RH  064%=      5-min Rain = 0
KSW1 140600Z 04012KT 28/21 A3006 RMK A01 T02800205  RH  064%=      5-min Rain = 0
KSW1 140601Z 05012KT 28/21 A3006 RMK A01 T02800205  RH  064%=      5-min Rain = 0
KSW1 140602Z 05011KT 28/20 A3006 RMK A01 T02790204  RH  064%=      5-min Rain = 0
KSW1 140603Z 05012KT 28/21 A3006 RMK A01 T02790205  RH  064%=      5-min Rain = 0
KSW1 140604Z 05011KT 28/21 A3006 RMK A01 T02790205  RH  064%=      5-min Rain = 0
KSW1 140605Z 05010KT 28/21 A3006 RMK A01 T02790205  RH  064%=      5-min Rain = 0
KSW1 140606Z 05010KT 28/21 A3006 RMK A01 T02780205  RH  064%=      5-min Rain = 0
KSW1 140607Z 05010KT 28/20 A3006 RMK A01 T02780204  RH  064%=      5-min Rain = 0
KSW1 140608Z 05011KT 28/20 A3006 RMK A01 T02780204  RH  064%=      5-min Rain = 0
KSW1 140609Z 05011KT 28/20 A3006 RMK A01 T02770204  RH  065%=      5-min Rain = 0
KSW1 140610Z 05012KT 28/20 A3006 RMK A01 T02770204  RH  065%=      5-min Rain = 0
KSW1 140611Z 05011KT 28/20 A3006 RMK A01 T02770204  RH  065%=      5-min Rain = 0
KSW1 140612Z 05010KT 28/20 A3006 RMK A01 T02770204  RH  064%=      5-min Rain = 0
KSW1 140613Z 05011KT 28/20 A3006 RMK A01 T02770204  RH  065%=      5-min Rain = 0
KSW1 140614Z 05010KT 28/21 A3006 RMK A01 T02770205  RH  065%=      5-min Rain = 0
KSW1 140615Z 05009G14KT 28/20 A3005 RMK A01 T02760204  RH  065%=      5-min Rain = 0
KSW1 140616Z 05013KT 28/20 A3006 RMK A01 T02750204  RH  065%=      5-min Rain = 0
KSW1 140617Z 05009KT 28/20 A3006 RMK A01 T02750204  RH  065%=      5-min Rain = 0
KSW1 140618Z 05011KT 28/20 A3006 RMK A01 T02750204  RH  065%=      5-min Rain = 0
KSW1 140619Z 05013KT 28/20 A3006 RMK A01 T02750204  RH  065%=      5-min Rain = 0
KSW1 140620Z 05012KT 28/20 A3005 RMK A01 T02750204  RH  065%=      5-min Rain = 0
KSW1 140621Z 05011KT 28/20 A3005 RMK A01 T02750204  RH  065%=      5-min Rain = 0
KSW1 140622Z 05011KT 28/21 A3005 RMK A01 T02750205  RH  066%=      5-min Rain = 0
KSW1 140623Z 05012KT 28/21 A3005 RMK A01 T02750205  RH  066%=      5-min Rain = 0
KSW1 140624Z 05010KT 27/20 A3005 RMK A01 T02740204  RH  066%=      5-min Rain = 0
KSW1 140625Z 05011KT 27/20 A3005 RMK A01 T02740204  RH  066%=      5-min Rain = 0
KSW1 140626Z 05010KT 27/20 A3005 RMK A01 T02740204  RH  066%=      5-min Rain = 0
KSW1 140627Z 05010KT 27/20 A3005 RMK A01 T02730204  RH  066%=      5-min Rain = 0
KSW1 140628Z 05011KT 27/20 A3005 RMK A01 T02730204  RH  066%=      5-min Rain = 0
KSW1 140629Z 05011KT 27/21 A3005 RMK A01 T02730205  RH  066%=      5-min Rain = 0
KSW1 140630Z 05010KT 27/21 A3006 RMK A01 T02730205  RH  066%=      5-min Rain = 0
KSW1 140631Z 05011KT 27/21 A3006 RMK A01 T02730205  RH  066%=      5-min Rain = 0
KSW1 140632Z 05010KT 27/20 A3006 RMK A01 T02720204  RH  066%=      5-min Rain = 0
KSW1 140633Z 05011KT 27/20 A3006 RMK A01 T02720204  RH  066%=      5-min Rain = 0
KSW1 140634Z 04009KT 27/20 A3006 RMK A01 T02720204  RH  066%=      5-min Rain = 0
KSW1 140635Z 05010KT 27/20 A3006 RMK A01 T02720204  RH  067%=      5-min Rain = 0
KSW1 140636Z 05010KT 27/20 A3006 RMK A01 T02720204  RH  067%=      5-min Rain = 0
KSW1 140637Z 05010KT 27/20 A3006 RMK A01 T02710204  RH  067%=      5-min Rain = 0
KSW1 140638Z 05010KT 27/20 A3006 RMK A01 T02710204  RH  067%=      5-min Rain = 0
KSW1 140639Z 05011KT 27/20 A3006 RMK A01 T02710204  RH  067%=      5-min Rain = 0
KSW1 140640Z 05011KT 27/20 A3006 RMK A01 T02710204  RH  067%=      5-min Rain = 0
KSW1 140641Z 05010KT 27/20 A3005 RMK A01 T02710204  RH  067%=      5-min Rain = 0
KSW1 140642Z 05011KT 27/20 A3005 RMK A01 T02710204  RH  067%=      5-min Rain = 0
KSW1 140643Z 05012KT 27/20 A3005 RMK A01 T02700204  RH  067%=      5-min Rain = 0
KSW1 140644Z 05010KT 27/20 A3005 RMK A01 T02700204  RH  067%=      5-min Rain = 0
KSW1 140645Z 04010KT 27/20 A3005 RMK A01 T02700204  RH  067%=      5-min Rain = 0
KSW1 140646Z 05011KT 27/20 A3005 RMK A01 T02700204  RH  067%=      5-min Rain = 0
KSW1 140647Z 05013KT 27/20 A3005 RMK A01 T02700204  RH  067%=      5-min Rain = 0
KSW1 140648Z 05011KT 27/20 A3005 RMK A01 T02700204  RH  067%=      5-min Rain = 0
KSW1 140649Z 05010KT 27/20 A3005 RMK A01 T02700204  RH  067%=      5-min Rain = 0
KSW1 140650Z 05011KT 27/20 A3005 RMK A01 T02700204  RH  067%=      5-min Rain = 0
KSW1 140651Z 05012KT 27/20 A3005 RMK A01 T02700204  RH  067%=      5-min Rain = 0
KSW1 140652Z 05011KT 27/20 A3005 RMK A01 T02700204  RH  067%=      5-min Rain = 0
KSW1 140653Z 05013KT 27/20 A3005 RMK A01 T02700204  RH  067%=      5-min Rain = 0
KSW1 140654Z 05012KT 27/20 A3005 RMK A01 T02690204  RH  067%=      5-min Rain = 0
KSW1 140655Z 05011KT 27/20 A3005 RMK A01 T02690204  RH  067%=      5-min Rain = 0
KSW1 140656Z 05011KT 27/20 A3005 RMK A01 T02690204  RH  068%=      5-min Rain = 0
KSW1 140657Z 05011KT 27/20 A3005 RMK A01 T02690204  RH  068%=      5-min Rain = 0
KSW1 140658Z 05010KT 27/20 A3005 RMK A01 T02690204  RH  068%=      5-min Rain = 0
KSW1 140659Z 05010KT 27/20 A3005 RMK A01 T02680204  RH  068%=      5-min Rain = 0
KSW1 140700Z 05012KT 27/20 A3005 RMK A01 T02680204  RH  068%=      5-min Rain = 0
KSW1 140701Z 05011KT 27/20 A3005 RMK A01 T02680204  RH  068%=      5-min Rain = 0
KSW1 140702Z 05010KT 27/20 A3005 RMK A01 T02680204  RH  068%=      5-min Rain = 0
KSW1 140703Z 05010KT 27/20 A3005 RMK A01 T02680204  RH  068%=      5-min Rain = 0
KSW1 140704Z 05009KT 27/20 A3005 RMK A01 T02670204  RH  068%=      5-min Rain = 0
KSW1 140705Z 05011KT 27/20 A3005 RMK A01 T02670204  RH  068%=      5-min Rain = 0
KSW1 140706Z 05012KT 27/21 A3005 RMK A01 T02670205  RH  069%=      5-min Rain = 0
KSW1 140707Z 05010KT 27/20 A3005 RMK A01 T02670204  RH  069%=      5-min Rain = 0
KSW1 140708Z 05011KT 27/20 A3005 RMK A01 T02670204  RH  069%=      5-min Rain = 0
KSW1 140709Z 05011KT 27/20 A3005 RMK A01 T02660204  RH  069%=      5-min Rain = 0
KSW1 140710Z 05011KT 27/21 A3005 RMK A01 T02670205  RH  069%=      5-min Rain = 0
KSW1 140711Z 05012KT 27/21 A3005 RMK A01 T02660205  RH  069%=      5-min Rain = 0
KSW1 140712Z 05010KT 27/21 A3005 RMK A01 T02670205  RH  069%=      5-min Rain = 0
KSW1 140713Z 04011KT 27/21 A3005 RMK A01 T02660205  RH  069%=      5-min Rain = 0
KSW1 140714Z 05011KT 27/21 A3005 RMK A01 T02660205  RH  069%=      5-min Rain = 0
KSW1 140715Z 05012KT 27/21 A3005 RMK A01 T02660205  RH  069%=      5-min Rain = 0
KSW1 140716Z 05011KT 27/21 A3005 RMK A01 T02660205  RH  069%=      5-min Rain = 0
KSW1 140717Z 05011KT 27/21 A3005 RMK A01 T02660205  RH  069%=      5-min Rain = 0
KSW1 140718Z 05011KT 27/21 A3005 RMK A01 T02650205  RH  070%=      5-min Rain = 0
KSW1 140719Z 05011KT 27/21 A3005 RMK A01 T02650206  RH  070%=      5-min Rain = 0
KSW1 140720Z 05010KT 27/21 A3005 RMK A01 T02650206  RH  070%=      5-min Rain = 0
KSW1 140721Z 05011KT 27/21 A3005 RMK A01 T02650205  RH  070%=      5-min Rain = 0
KSW1 140722Z 05010KT 27/21 A3005 RMK A01 T02650206  RH  070%=      5-min Rain = 0
KSW1 140723Z 05010KT 26/21 A3005 RMK A01 T02640205  RH  070%=      5-min Rain = 0
KSW1 140724Z 05010KT 26/21 A3005 RMK A01 T02640206  RH  070%=      5-min Rain = 0
KSW1 140725Z 05010KT 26/21 A3005 RMK A01 T02640206  RH  070%=      5-min Rain = 0
KSW1 140726Z 05011KT 26/21 A3005 RMK A01 T02630206  RH  071%=      5-min Rain = 0
KSW1 140727Z 05012KT 26/21 A3005 RMK A01 T02630206  RH  071%=      5-min Rain = 0
KSW1 140728Z 04010KT 26/21 A3005 RMK A01 T02630206  RH  071%=      5-min Rain = 0
KSW1 140729Z 05012KT 26/21 A3005 RMK A01 T02620207  RH  071%=      5-min Rain = 0
KSW1 140730Z 05011KT 26/21 A3005 RMK A01 T02620207  RH  072%=      5-min Rain = 0
KSW1 140731Z 05011KT 26/21 A3005 RMK A01 T02620208  RH  072%=      5-min Rain = 0
KSW1 140732Z 06010KT 26/21 A3005 RMK A01 T02620208  RH  072%=      5-min Rain = 0
KSW1 140733Z 06011KT 26/21 A3005 RMK A01 T02620209  RH  072%=      5-min Rain = 0
KSW1 140734Z 05011KT 26/21 A3005 RMK A01 T02620209  RH  073%=      5-min Rain = 0
KSW1 140735Z 06011KT 26/21 A3005 RMK A01 T02610209  RH  073%=      5-min Rain = 0
KSW1 140736Z 05011KT 26/21 A3005 RMK A01 T02620209  RH  073%=      5-min Rain = 0
KSW1 140737Z 05008KT 26/21 A3005 RMK A01 T02610209  RH  073%=      5-min Rain = 0
KSW1 140738Z 06009KT 26/21 A3005 RMK A01 T02610209  RH  073%=      5-min Rain = 0
KSW1 140739Z 06009KT 26/21 A3005 RMK A01 T02600209  RH  073%=      5-min Rain = 0
KSW1 140740Z 06011KT 26/21 A3005 RMK A01 T02600209  RH  074%=      5-min Rain = 0
KSW1 140741Z 06011KT 26/21 A3005 RMK A01 T02600210  RH  074%=      5-min Rain = 0
KSW1 140742Z 06011KT 26/21 A3005 RMK A01 T02600210  RH  074%=      5-min Rain = 0
KSW1 140743Z 05011KT 26/21 A3005 RMK A01 T02590210  RH  074%=      5-min Rain = 0
KSW1 140744Z 05010KT 26/21 A3005 RMK A01 T02590210  RH  074%=      5-min Rain = 0
KSW1 140745Z 05010KT 26/21 A3005 RMK A01 T02590210  RH  074%=      5-min Rain = 0
KSW1 140746Z 06011KT 26/21 A3005 RMK A01 T02590211  RH  075%=      5-min Rain = 0
KSW1 140747Z 06011KT 26/21 A3005 RMK A01 T02590211  RH  075%=      5-min Rain = 0
KSW1 140748Z 05011KT 26/21 A3005 RMK A01 T02590211  RH  075%=      5-min Rain = 0
KSW1 140749Z 05011KT 26/21 A3005 RMK A01 T02580211  RH  075%=      5-min Rain = 0
KSW1 140750Z 05012KT 26/21 A3005 RMK A01 T02580211  RH  075%=      5-min Rain = 0
KSW1 140751Z 05012KT 26/21 A3005 RMK A01 T02580211  RH  075%=      5-min Rain = 0
KSW1 140752Z 05011KT 26/21 A3005 RMK A01 T02580211  RH  076%=      5-min Rain = 0
KSW1 140753Z 05011KT 26/21 A3005 RMK A01 T02580212  RH  076%=      5-min Rain = 0
KSW1 140754Z 05010KT 26/21 A3005 RMK A01 T02570211  RH  076%=      5-min Rain = 0
KSW1 140755Z 05012KT 26/21 A3005 RMK A01 T02570212  RH  076%=      5-min Rain = 0
KSW1 140756Z 05012KT 26/21 A3005 RMK A01 T02570212  RH  076%=      5-min Rain = 0
KSW1 140757Z 05011G16KT 26/21 A3005 RMK A01 T02570212  RH  076%=      5-min Rain = 0
KSW1 140758Z 05012KT 26/21 A3005 RMK A01 T02570212  RH  076%=      5-min Rain = 0
KSW1 140759Z 05012KT 26/21 A3004 RMK A01 T02560212  RH  077%=      5-min Rain = 0
KSW1 140800Z 05013KT 26/21 A3004 RMK A01 T02560212  RH  077%=      5-min Rain = 0
KSW1 140801Z 05013KT 26/21 A3004 RMK A01 T02560212  RH  077%=      5-min Rain = 0
KSW1 140802Z 05013KT 26/21 A3004 RMK A01 T02560213  RH  077%=      5-min Rain = 0
KSW1 140803Z 05013KT 26/21 A3005 RMK A01 T02560213  RH  077%=      5-min Rain = 0
KSW1 140804Z 05013KT 26/21 A3004 RMK A01 T02560213  RH  077%=      5-min Rain = 0
KSW1 140805Z 04012KT 26/21 A3005 RMK A01 T02560213  RH  077%=      5-min Rain = 0
KSW1 140806Z 04014KT 26/21 A3005 RMK A01 T02560213  RH  077%=      5-min Rain = 0
KSW1 140807Z 04012KT 26/21 A3005 RMK A01 T02560213  RH  077%=      5-min Rain = 0
KSW1 140808Z 04013KT 26/21 A3005 RMK A01 T02560214  RH  077%=      5-min Rain = 0
KSW1 140809Z 04010KT 26/21 A3005 RMK A01 T02560213  RH  077%=      5-min Rain = 0
KSW1 140810Z 04013KT 26/21 A3005 RMK A01 T02550213  RH  077%=      5-min Rain = 0
KSW1 140811Z 04013KT 26/21 A3005 RMK A01 T02550213  RH  078%=      5-min Rain = 0
KSW1 140812Z 04012KT 26/21 A3005 RMK A01 T02550214  RH  078%=      5-min Rain = 0
KSW1 140813Z 04013KT 26/21 A3005 RMK A01 T02550213  RH  078%=      5-min Rain = 0
KSW1 140814Z 04012KT 26/21 A3005 RMK A01 T02550213  RH  078%=      5-min Rain = 0
KSW1 140815Z 04011KT 25/21 A3005 RMK A01 T02540213  RH  078%=      5-min Rain = 0
KSW1 140816Z 04011KT 25/21 A3005 RMK A01 T02540213  RH  078%=      5-min Rain = 0
KSW1 140817Z 04011KT 25/21 A3005 RMK A01 T02540213  RH  078%=      5-min Rain = 0
KSW1 140818Z 04012KT 25/21 A3005 RMK A01 T02530213  RH  078%=      5-min Rain = 0
KSW1 140819Z 04013KT 25/21 A3005 RMK A01 T02530213  RH  078%=      5-min Rain = 0
KSW1 140820Z 04012KT 25/21 A3005 RMK A01 T02530213  RH  078%=      5-min Rain = 0
KSW1 140821Z 04012KT 25/21 A3005 RMK A01 T02530213  RH  078%=      5-min Rain = 0
KSW1 140822Z 04013KT 25/21 A3005 RMK A01 T02530213  RH  078%=      5-min Rain = 0
KSW1 140823Z 04012KT 25/21 A3005 RMK A01 T02530213  RH  078%=      5-min Rain = 0
KSW1 140824Z 04012KT 25/21 A3005 RMK A01 T02530213  RH  078%=      5-min Rain = 0
KSW1 140825Z 05012KT 25/21 A3005 RMK A01 T02530213  RH  078%=      5-min Rain = 0
KSW1 140826Z 04013KT 25/21 A3006 RMK A01 T02530213  RH  078%=      5-min Rain = 0
KSW1 140827Z 05013KT 25/21 A3006 RMK A01 T02530213  RH  078%=      5-min Rain = 0
KSW1 140828Z 05013KT 25/21 A3005 RMK A01 T02530213  RH  078%=      5-min Rain = 0
KSW1 140829Z 05012KT 25/21 A3005 RMK A01 T02530212  RH  078%=      5-min Rain = 0
KSW1 140830Z 05012KT 25/21 A3005 RMK A01 T02530213  RH  078%=      5-min Rain = 0
KSW1 140831Z 05011KT 25/21 A3005 RMK A01 T02530212  RH  078%=      5-min Rain = 0
KSW1 140832Z 06011KT 25/21 A3005 RMK A01 T02530212  RH  078%=      5-min Rain = 0
KSW1 140833Z 05012KT 25/21 A3005 RMK A01 T02530213  RH  078%=      5-min Rain = 0
KSW1 140834Z 06013KT 25/21 A3005 RMK A01 T02520212  RH  078%=      5-min Rain = 0
KSW1 140835Z 06013KT 25/21 A3005 RMK A01 T02530213  RH  078%=      5-min Rain = 0
KSW1 140836Z 05011KT 25/21 A3005 RMK A01 T02530212  RH  078%=      5-min Rain = 0
KSW1 140837Z 06012KT 25/21 A3005 RMK A01 T02530213  RH  078%=      5-min Rain = 0
KSW1 140838Z 05012KT 25/21 A3005 RMK A01 T02530213  RH  078%=      5-min Rain = 0
KSW1 140839Z 05011KT 25/21 A3005 RMK A01 T02520212  RH  079%=      5-min Rain = 0
KSW1 140840Z 05011KT 25/21 A3005 RMK A01 T02520212  RH  079%=      5-min Rain = 0
KSW1 140841Z 05011KT 25/21 A3005 RMK A01 T02520212  RH  079%=      5-min Rain = 0
KSW1 140842Z 05013KT 25/21 A3005 RMK A01 T02510212  RH  079%=      5-min Rain = 0
KSW1 140843Z 05011KT 25/21 A3005 RMK A01 T02510212  RH  079%=      5-min Rain = 0
KSW1 140844Z 05013KT 25/21 A3006 RMK A01 T02510212  RH  079%=      5-min Rain = 0
KSW1 140845Z 05012KT 25/21 A3006 RMK A01 T02510212  RH  079%=      5-min Rain = 0
KSW1 140846Z 05013KT 25/21 A3005 RMK A01 T02510212  RH  079%=      5-min Rain = 0
KSW1 140847Z 05013KT 25/21 A3005 RMK A01 T02510212  RH  079%=      5-min Rain = 0
KSW1 140848Z 05011KT 25/21 A3005 RMK A01 T02510212  RH  079%=      5-min Rain = 0
KSW1 140849Z 05011KT 25/21 A3005 RMK A01 T02510212  RH  079%=      5-min Rain = 0
KSW1 140850Z 05010KT 25/21 A3005 RMK A01 T02510212  RH  079%=      5-min Rain = 0
KSW1 140851Z 05011KT 25/21 A3005 RMK A01 T02510212  RH  079%=      5-min Rain = 0
KSW1 140852Z 05011KT 25/21 A3005 RMK A01 T02510212  RH  079%=      5-min Rain = 0
KSW1 140853Z 05010KT 25/21 A3005 RMK A01 T02510212  RH  079%=      5-min Rain = 0
KSW1 140854Z 05010KT 25/21 A3005 RMK A01 T02500212  RH  079%=      5-min Rain = 0
KSW1 140855Z 06010KT 25/21 A3005 RMK A01 T02500212  RH  079%=      5-min Rain = 0
KSW1 140856Z 05010KT 25/21 A3005 RMK A01 T02500212  RH  079%=      5-min Rain = 0
KSW1 140857Z 05010KT 25/21 A3005 RMK A01 T02500212  RH  079%=      5-min Rain = 0
KSW1 140858Z 05010KT 25/21 A3005 RMK A01 T02490212  RH  080%=      5-min Rain = 0
KSW1 140859Z 05010KT 25/21 A3004 RMK A01 T02490212  RH  080%=      5-min Rain = 0
KSW1 140900Z 06009KT 25/21 A3004 RMK A01 T02490212  RH  080%=      5-min Rain = 0
KSW1 140901Z 05011KT 25/21 A3004 RMK A01 T02490212  RH  080%=      5-min Rain = 0
KSW1 140902Z 05010KT 25/21 A3004 RMK A01 T02480212  RH  080%=      5-min Rain = 0
KSW1 140903Z 06010KT 25/21 A3004 RMK A01 T02480212  RH  080%=      5-min Rain = 0
KSW1 140904Z 06009KT 25/21 A3004 RMK A01 T02480212  RH  080%=      5-min Rain = 0
KSW1 140905Z 06010KT 25/21 A3004 RMK A01 T02480212  RH  080%=      5-min Rain = 0
KSW1 140906Z 05010KT 25/21 A3004 RMK A01 T02480212  RH  080%=      5-min Rain = 0
KSW1 140907Z 05009KT 25/21 A3004 RMK A01 T02470212  RH  080%=      5-min Rain = 0
KSW1 140908Z 05010KT 25/21 A3004 RMK A01 T02470211  RH  081%=      5-min Rain = 0
KSW1 140909Z 05008KT 25/21 A3004 RMK A01 T02470211  RH  081%=      5-min Rain = 0
KSW1 140910Z 05009KT 25/21 A3004 RMK A01 T02470211  RH  081%=      5-min Rain = 0
KSW1 140911Z 05009KT 25/21 A3004 RMK A01 T02460211  RH  081%=      5-min Rain = 0
KSW1 140912Z 06008KT 25/21 A3004 RMK A01 T02460211  RH  081%=      5-min Rain = 0
KSW1 140913Z 05010KT 25/21 A3004 RMK A01 T02460211  RH  081%=      5-min Rain = 0
KSW1 140914Z 06009KT 25/21 A3004 RMK A01 T02460211  RH  081%=      5-min Rain = 0
KSW1 140915Z 06008KT 25/21 A3004 RMK A01 T02460211  RH  081%=      5-min Rain = 0
KSW1 140916Z 05008KT 25/21 A3004 RMK A01 T02460211  RH  081%=      5-min Rain = 0
KSW1 140917Z 05009KT 25/21 A3004 RMK A01 T02460211  RH  081%=      5-min Rain = 0
KSW1 140918Z 05008KT 25/21 A3004 RMK A01 T02460211  RH  081%=      5-min Rain = 0
KSW1 140919Z 05009KT 25/21 A3004 RMK A01 T02450211  RH  081%=      5-min Rain = 0
KSW1 140920Z 05009KT 25/21 A3004 RMK A01 T02450211  RH  081%=      5-min Rain = 0
KSW1 140921Z 04009KT 25/21 A3004 RMK A01 T02450211  RH  081%=      5-min Rain = 0
KSW1 140922Z 05008KT 25/21 A3004 RMK A01 T02450211  RH  081%=      5-min Rain = 0
KSW1 140923Z 04010KT 25/21 A3004 RMK A01 T02450211  RH  081%=      5-min Rain = 0
KSW1 140924Z 04010KT 25/21 A3004 RMK A01 T02450211  RH  081%=      5-min Rain = 0
KSW1 140925Z 04010KT 25/21 A3005 RMK A01 T02450211  RH  081%=      5-min Rain = 0
KSW1 140926Z 03010KT 25/21 A3005 RMK A01 T02450211  RH  081%=      5-min Rain = 0
KSW1 140927Z 03010KT 25/21 A3005 RMK A01 T02450210  RH  081%=      5-min Rain = 0
KSW1 140928Z 03010KT 25/21 A3005 RMK A01 T02450211  RH  081%=      5-min Rain = 0
KSW1 140929Z 03011KT 25/21 A3005 RMK A01 T02450210  RH  081%=      5-min Rain = 0
KSW1 140930Z 03011KT 25/21 A3005 RMK A01 T02450210  RH  081%=      5-min Rain = 0
KSW1 140931Z 03012KT 25/21 A3005 RMK A01 T02450211  RH  081%=      5-min Rain = 0
KSW1 140932Z 03013KT 25/21 A3005 RMK A01 T02450211  RH  081%=      5-min Rain = 0
KSW1 140933Z 03013KT 25/21 A3005 RMK A01 T02460211  RH  081%=      5-min Rain = 0
KSW1 140934Z 03013KT 25/21 A3006 RMK A01 T02460211  RH  081%=      5-min Rain = 0
KSW1 140935Z 03013KT 25/21 A3006 RMK A01 T02460211  RH  081%=      5-min Rain = 0
KSW1 140936Z 03015KT 25/21 A3006 RMK A01 T02470211  RH  081%=      5-min Rain = 0
KSW1 140937Z 03012KT 25/21 A3006 RMK A01 T02470211  RH  080%=      5-min Rain = 0
KSW1 140938Z 03012KT 25/21 A3006 RMK A01 T02470211  RH  080%=      5-min Rain = 0
KSW1 140939Z 03012KT 25/21 A3006 RMK A01 T02470211  RH  080%=      5-min Rain = 0
KSW1 140940Z 03012KT 25/21 A3006 RMK A01 T02470211  RH  080%=      5-min Rain = 0
KSW1 140941Z 03014KT 25/21 A3006 RMK A01 T02470211  RH  080%=      5-min Rain = 0
KSW1 140942Z 03012KT 25/21 A3006 RMK A01 T02470210  RH  080%=      5-min Rain = 0
KSW1 140943Z 03012G17KT 25/21 A3006 RMK A01 T02470210  RH  080%=      5-min Rain = 0
KSW1 140944Z 03014KT 25/21 A3006 RMK A01 T02470210  RH  080%=      5-min Rain = 0
KSW1 140945Z 04013KT 25/21 A3006 RMK A01 T02470210  RH  080%=      5-min Rain = 0
KSW1 140946Z 04014KT 25/21 A3006 RMK A01 T02470210  RH  080%=      5-min Rain = 0
KSW1 140947Z 04012KT 25/21 A3006 RMK A01 T02470210  RH  080%=      5-min Rain = 0
KSW1 140948Z 04014KT 25/21 A3006 RMK A01 T02470210  RH  080%=      5-min Rain = 0
KSW1 140949Z 04011KT 25/21 A3006 RMK A01 T02470210  RH  080%=      5-min Rain = 0
KSW1 140950Z 04011KT 25/21 A3006 RMK A01 T02470210  RH  080%=      5-min Rain = 0
KSW1 140951Z 04010KT 25/21 A3005 RMK A01 T02470210  RH  080%=      5-min Rain = 0
KSW1 140952Z 05010KT 25/21 A3005 RMK A01 T02460210  RH  080%=      5-min Rain = 0
KSW1 140953Z 04011KT 25/21 A3005 RMK A01 T02460210  RH  080%=      5-min Rain = 0
KSW1 140954Z 05011KT 25/21 A3005 RMK A01 T02450210  RH  081%=      5-min Rain = 0
KSW1 140955Z 05011KT 25/21 A3005 RMK A01 T02450210  RH  081%=      5-min Rain = 0
KSW1 140956Z 05009KT 25/21 A3005 RMK A01 T02450210  RH  081%=      5-min Rain = 0
KSW1 140957Z 05009KT 25/21 A3005 RMK A01 T02450210  RH  081%=      5-min Rain = 0
KSW1 140958Z 05010KT 25/21 A3005 RMK A01 T02450210  RH  081%=      5-min Rain = 0
KSW1 140959Z 05011KT 25/21 A3005 RMK A01 T02450210  RH  081%=      5-min Rain = 0
KSW1 141000Z 05012KT 24/21 A3005 RMK A01 T02440210  RH  081%=      5-min Rain = 0
KSW1 141001Z 05012KT 25/21 A3005 RMK A01 T02450210  RH  081%=      5-min Rain = 0
KSW1 141002Z 05010KT 25/21 A3005 RMK A01 T02450210  RH  081%=      5-min Rain = 0
KSW1 141003Z 05010KT 24/21 A3005 RMK A01 T02440209  RH  081%=      5-min Rain = 0
KSW1 141004Z 05010KT 24/21 A3005 RMK A01 T02440209  RH  081%=      5-min Rain = 0
KSW1 141005Z 05009KT 24/21 A3005 RMK A01 T02440210  RH  081%=      5-min Rain = 0
KSW1 141006Z 05010KT 24/21 A3005 RMK A01 T02430209  RH  081%=      5-min Rain = 0
KSW1 141007Z 05011KT 24/21 A3005 RMK A01 T02430209  RH  082%=      5-min Rain = 0
KSW1 141008Z 05009KT 24/21 A3005 RMK A01 T02430209  RH  082%=      5-min Rain = 0
KSW1 141009Z 05010KT 24/21 A3005 RMK A01 T02430209  RH  082%=      5-min Rain = 0
KSW1 141010Z 05010KT 24/21 A3005 RMK A01 T02430209  RH  082%=      5-min Rain = 0
KSW1 141011Z 05011KT 24/21 A3005 RMK A01 T02430210  RH  082%=      5-min Rain = 0
KSW1 141012Z 05011KT 24/21 A3005 RMK A01 T02430209  RH  082%=      5-min Rain = 0
KSW1 141013Z 06010KT 24/21 A3005 RMK A01 T02430209  RH  082%=      5-min Rain = 0
KSW1 141014Z 06010KT 24/21 A3005 RMK A01 T02420209  RH  082%=      5-min Rain = 0
KSW1 141015Z 06011KT 24/21 A3005 RMK A01 T02420209  RH  082%=      5-min Rain = 0
KSW1 141016Z 06010KT 24/21 A3005 RMK A01 T02420209  RH  082%=      5-min Rain = 0
KSW1 141017Z 05012KT 24/21 A3005 RMK A01 T02420209  RH  082%=      5-min Rain = 0
KSW1 141018Z 06011KT 24/21 A3005 RMK A01 T02420208  RH  082%=      5-min Rain = 0
KSW1 141019Z 05011KT 24/21 A3005 RMK A01 T02420209  RH  082%=      5-min Rain = 0
KSW1 141020Z 06011KT 24/21 A3005 RMK A01 T02420208  RH  082%=      5-min Rain = 0
KSW1 141021Z 05011KT 24/21 A3005 RMK A01 T02420208  RH  082%=      5-min Rain = 0
KSW1 141022Z 06010KT 24/21 A3005 RMK A01 T02410208  RH  082%=      5-min Rain = 0
KSW1 141023Z 05011KT 24/21 A3005 RMK A01 T02410208  RH  082%=      5-min Rain = 0
KSW1 141024Z 05011KT 24/21 A3005 RMK A01 T02410208  RH  082%=      5-min Rain = 0
KSW1 141025Z 05011KT 24/21 A3005 RMK A01 T02400208  RH  082%=      5-min Rain = 0
KSW1 141026Z 05012KT 24/21 A3005 RMK A01 T02400208  RH  082%=      5-min Rain = 0
KSW1 141027Z 04011KT 24/21 A3006 RMK A01 T02400208  RH  082%=      5-min Rain = 0
KSW1 141028Z 05013KT 24/21 A3006 RMK A01 T02400208  RH  082%=      5-min Rain = 0
KSW1 141029Z 05011KT 24/21 A3006 RMK A01 T02400207  RH  082%=      5-min Rain = 0
KSW1 141030Z 04012KT 24/21 A3006 RMK A01 T02400207  RH  082%=      5-min Rain = 0
KSW1 141031Z 04012KT 24/21 A3006 RMK A01 T02400207  RH  082%=      5-min Rain = 0
KSW1 141032Z 04012KT 24/21 A3006 RMK A01 T02400207  RH  082%=      5-min Rain = 0
KSW1 141033Z 04012KT 24/21 A3006 RMK A01 T02400207  RH  082%=      5-min Rain = 0
KSW1 141034Z 04011KT 24/21 A3006 RMK A01 T02400207  RH  082%=      5-min Rain = 0
KSW1 141035Z 04011KT 24/21 A3006 RMK A01 T02400207  RH  082%=      5-min Rain = 0
KSW1 141036Z 04010KT 24/21 A3006 RMK A01 T02400207  RH  082%=      5-min Rain = 0
KSW1 141037Z 04011KT 24/21 A3006 RMK A01 T02390207  RH  082%=      5-min Rain = 0
KSW1 141038Z 04010KT 24/21 A3006 RMK A01 T02390207  RH  082%=      5-min Rain = 0
KSW1 141039Z 04010KT 24/21 A3006 RMK A01 T02390207  RH  082%=      5-min Rain = 0
KSW1 141040Z 04010KT 24/21 A3007 RMK A01 T02380207  RH  082%=      5-min Rain = 0
KSW1 141041Z 04011KT 24/21 A3007 RMK A01 T02380207  RH  082%=      5-min Rain = 0
KSW1 141042Z 04011KT 24/21 A3007 RMK A01 T02380206  RH  083%=      5-min Rain = 0
KSW1 141043Z 04010KT 24/21 A3007 RMK A01 T02380206  RH  082%=      5-min Rain = 0
KSW1 141044Z 04011KT 24/21 A3007 RMK A01 T02380206  RH  082%=      5-min Rain = 0
KSW1 141045Z 04011KT 24/21 A3007 RMK A01 T02380206  RH  082%=      5-min Rain = 0
KSW1 141046Z 04010KT 24/21 A3007 RMK A01 T02380206  RH  082%=      5-min Rain = 0
KSW1 141047Z 04011KT 24/21 A3007 RMK A01 T02380206  RH  082%=      5-min Rain = 0
KSW1 141048Z 03011KT 24/21 A3007 RMK A01 T02380206  RH  082%=      5-min Rain = 0
KSW1 141049Z 03010KT 24/21 A3007 RMK A01 T02370205  RH  082%=      5-min Rain = 0
KSW1 141050Z 03011KT 24/21 A3007 RMK A01 T02370205  RH  082%=      5-min Rain = 0
KSW1 141051Z 03012KT 24/21 A3007 RMK A01 T02370205  RH  082%=      5-min Rain = 0
KSW1 141052Z 03013KT 24/21 A3007 RMK A01 T02370205  RH  082%=      5-min Rain = 0
KSW1 141053Z 03012KT 24/21 A3007 RMK A01 T02370205  RH  082%=      5-min Rain = 0
KSW1 141054Z 04010KT 24/20 A3007 RMK A01 T02370204  RH  082%=      5-min Rain = 0
KSW1 141055Z 04013KT 24/20 A3007 RMK A01 T02370204  RH  082%=      5-min Rain = 0
KSW1 141056Z 04013KT 24/20 A3007 RMK A01 T02370204  RH  082%=      5-min Rain = 0
KSW1 141057Z 04011G16KT 24/20 A3007 RMK A01 T02370204  RH  082%=      5-min Rain = 0
KSW1 141058Z 04012G17KT 24/20 A3007 RMK A01 T02370204  RH  082%=      5-min Rain = 0
KSW1 141059Z 04012KT 24/20 A3007 RMK A01 T02370204  RH  082%=      5-min Rain = 0
KSW1 141100Z 04012KT 24/20 A3007 RMK A01 T02370204  RH  082%=      5-min Rain = 0
KSW1 141101Z 03012KT 24/20 A3007 RMK A01 T02370204  RH  082%=      5-min Rain = 0
KSW1 141102Z 04012KT 24/20 A3007 RMK A01 T02370204  RH  082%=      5-min Rain = 0
KSW1 141103Z 04012KT 24/20 A3007 RMK A01 T02370204  RH  082%=      5-min Rain = 0
KSW1 141104Z 04013KT 24/20 A3007 RMK A01 T02370204  RH  082%=      5-min Rain = 0
KSW1 141105Z 04014G19KT 24/20 A3007 RMK A01 T02370204  RH  082%=      5-min Rain = 0
KSW1 141106Z 05013KT 24/20 A3007 RMK A01 T02370204  RH  082%=      5-min Rain = 0
KSW1 141107Z 05014G19KT 24/20 A3007 RMK A01 T02370203  RH  082%=      5-min Rain = 0
KSW1 141108Z 05015KT 24/20 A3007 RMK A01 T02370204  RH  082%=      5-min Rain = 0
KSW1 141109Z 05016KT 24/20 A3007 RMK A01 T02370204  RH  081%=      5-min Rain = 0
KSW1 141110Z 05015KT 24/20 A3007 RMK A01 T02370203  RH  081%=      5-min Rain = 0
KSW1 141111Z 05013KT 24/20 A3007 RMK A01 T02370204  RH  081%=      5-min Rain = 0
KSW1 141112Z 05012KT 24/20 A3007 RMK A01 T02370204  RH  081%=      5-min Rain = 0
KSW1 141113Z 05012G17KT 24/20 A3007 RMK A01 T02370204  RH  082%=      5-min Rain = 0
KSW1 141114Z 05012KT 24/20 A3007 RMK A01 T02360203  RH  082%=      5-min Rain = 0
KSW1 141115Z 05014KT 24/20 A3007 RMK A01 T02360204  RH  082%=      5-min Rain = 0
KSW1 141116Z 05012KT 24/20 A3007 RMK A01 T02360204  RH  082%=      5-min Rain = 0
KSW1 141117Z 04011KT 24/20 A3007 RMK A01 T02360204  RH  082%=      5-min Rain = 0
KSW1 141118Z 05013KT 24/20 A3008 RMK A01 T02360203  RH  082%=      5-min Rain = 0
KSW1 141119Z 05014KT 24/20 A3008 RMK A01 T02350203  RH  082%=      5-min Rain = 0
KSW1 141120Z 04013KT 24/20 A3008 RMK A01 T02350203  RH  082%=      5-min Rain = 0
KSW1 141121Z 04014KT 24/20 A3008 RMK A01 T02350203  RH  082%=      5-min Rain = 0
KSW1 141122Z 04015KT 24/20 A3008 RMK A01 T02350204  RH  082%=      5-min Rain = 0
KSW1 141123Z 04013KT 24/20 A3008 RMK A01 T02350203  RH  082%=      5-min Rain = 0
KSW1 141124Z 05014KT 24/20 A3008 RMK A01 T02350203  RH  082%=      5-min Rain = 0
KSW1 141125Z 05011KT 24/20 A3008 RMK A01 T02350203  RH  082%=      5-min Rain = 0
KSW1 141126Z 05011KT 24/20 A3008 RMK A01 T02350203  RH  082%=      5-min Rain = 0
KSW1 141127Z 05011KT 24/20 A3008 RMK A01 T02350203  RH  082%=      5-min Rain = 0
KSW1 141128Z 05011KT 23/20 A3008 RMK A01 T02340203  RH  083%=      5-min Rain = 0
KSW1 141129Z 05014KT 23/20 A3008 RMK A01 T02340203  RH  083%=      5-min Rain = 0
KSW1 141130Z 05015KT 23/20 A3008 RMK A01 T02340203  RH  083%=      5-min Rain = 0
KSW1 141131Z 05014KT 23/20 A3008 RMK A01 T02340203  RH  083%=      5-min Rain = 0
KSW1 141132Z 04015KT 23/20 A3008 RMK A01 T02340203  RH  083%=      5-min Rain = 0
KSW1 141133Z 04015KT 23/20 A3008 RMK A01 T02340203  RH  083%=      5-min Rain = 0
KSW1 141134Z 05015KT 23/20 A3008 RMK A01 T02340203  RH  083%=      5-min Rain = 0
KSW1 141135Z 04013G18KT 23/20 A3008 RMK A01 T02340203  RH  083%=      5-min Rain = 0
KSW1 141136Z 05012KT 23/20 A3008 RMK A01 T02340203  RH  083%=      5-min Rain = 0
KSW1 141137Z 05012KT 23/20 A3008 RMK A01 T02340203  RH  083%=      5-min Rain = 0
KSW1 141138Z 05014G20KT 23/20 A3008 RMK A01 T02330203  RH  083%=      5-min Rain = 0
KSW1 141139Z 05015KT 23/20 A3008 RMK A01 T02330203  RH  083%=      5-min Rain = 0
KSW1 141140Z 05014KT 23/20 A3008 RMK A01 T02330203  RH  083%=      5-min Rain = 0
KSW1 141141Z 05011KT 23/20 A3008 RMK A01 T02330203  RH  083%=      5-min Rain = 0
KSW1 141142Z 05013KT 23/20 A3008 RMK A01 T02330203  RH  083%=      5-min Rain = 0
KSW1 141143Z 05013KT 23/20 A3008 RMK A01 T02330203  RH  083%=      5-min Rain = 0
KSW1 141144Z 04012KT 23/20 A3008 RMK A01 T02330203  RH  083%=      5-min Rain = 0
KSW1 141145Z 04012KT 23/20 A3008 RMK A01 T02320202  RH  083%=      5-min Rain = 0
KSW1 141146Z 05013KT 23/20 A3009 RMK A01 T02320203  RH  083%=      5-min Rain = 0
KSW1 141147Z 05014KT 23/20 A3009 RMK A01 T02320203  RH  083%=      5-min Rain = 0
KSW1 141148Z 04012KT 23/20 A3009 RMK A01 T02320203  RH  084%=      5-min Rain = 0
KSW1 141149Z 04012KT 23/20 A3009 RMK A01 T02320202  RH  083%=      5-min Rain = 0
KSW1 141150Z 04011KT 23/20 A3009 RMK A01 T02320202  RH  084%=      5-min Rain = 0
KSW1 141151Z 04012KT 23/20 A3009 RMK A01 T02310202  RH  084%=      5-min Rain = 0
KSW1 141152Z 04013KT 23/20 A3009 RMK A01 T02310202  RH  084%=      5-min Rain = 0
KSW1 141153Z 04012KT 23/20 A3009 RMK A01 T02310202  RH  084%=      5-min Rain = 0
KSW1 141154Z 04012KT 23/20 A3009 RMK A01 T02310202  RH  084%=      5-min Rain = 0
KSW1 141155Z 04013KT 23/20 A3009 RMK A01 T02310202  RH  084%=      5-min Rain = 0
KSW1 141156Z 04013KT 23/20 A3009 RMK A01 T02310202  RH  084%=      5-min Rain = 0
KSW1 141157Z 04011KT 23/20 A3009 RMK A01 T02310202  RH  084%=      5-min Rain = 0
KSW1 141158Z 04013KT 23/20 A3009 RMK A01 T02300202  RH  084%=      5-min Rain = 0
KSW1 141159Z 04013KT 23/20 A3009 RMK A01 T02300202  RH  084%=      5-min Rain = 0
KSW1 141200Z 04014KT 23/20 A3009 RMK A01 T02300202  RH  084%=      5-min Rain = 0
KSW1 141201Z 04013KT 23/20 A3009 RMK A01 T02300202  RH  084%=      5-min Rain = 0
KSW1 141202Z 04013KT 23/20 A3009 RMK A01 T02310202  RH  084%=      5-min Rain = 0
KSW1 141203Z 04013KT 23/20 A3009 RMK A01 T02300202  RH  084%=      5-min Rain = 0
KSW1 141204Z 04011KT 23/20 A3009 RMK A01 T02300202  RH  084%=      5-min Rain = 0
KSW1 141205Z 04012KT 23/20 A3009 RMK A01 T02300202  RH  084%=      5-min Rain = 0
KSW1 141206Z 04013KT 23/20 A3009 RMK A01 T02300202  RH  084%=      5-min Rain = 0
KSW1 141207Z 04012KT 23/20 A3009 RMK A01 T02300202  RH  085%=      5-min Rain = 0
KSW1 141208Z 04012KT 23/20 A3009 RMK A01 T02290202  RH  085%=      5-min Rain = 0
KSW1 141209Z 04013KT 23/20 A3009 RMK A01 T02290202  RH  085%=      5-min Rain = 0
KSW1 141210Z 04013KT 23/20 A3009 RMK A01 T02290202  RH  085%=      5-min Rain = 0
KSW1 141211Z 04013KT 23/20 A3009 RMK A01 T02290202  RH  085%=      5-min Rain = 0
KSW1 141212Z 04015KT 23/20 A3009 RMK A01 T02290202  RH  085%=      5-min Rain = 0
KSW1 141213Z 05012KT 23/20 A3009 RMK A01 T02290201  RH  084%=      5-min Rain = 0
KSW1 141214Z 04012KT 23/20 A3009 RMK A01 T02290202  RH  084%=      5-min Rain = 0
KSW1 141215Z 04011KT 23/20 A3009 RMK A01 T02290201  RH  084%=      5-min Rain = 0
KSW1 141216Z 04011KT 23/20 A3009 RMK A01 T02290201  RH  084%=      5-min Rain = 0
KSW1 141217Z 04009KT 23/20 A3009 RMK A01 T02290202  RH  085%=      5-min Rain = 0
KSW1 141218Z 04012KT 23/20 A3009 RMK A01 T02290202  RH  085%=      5-min Rain = 0
KSW1 141219Z 04014KT 23/20 A3009 RMK A01 T02290201  RH  085%=      5-min Rain = 0
KSW1 141220Z 04013KT 23/20 A3009 RMK A01 T02280201  RH  085%=      5-min Rain = 0
KSW1 141221Z 04012KT 23/20 A3009 RMK A01 T02280201  RH  085%=      5-min Rain = 0
KSW1 141222Z 04010KT 23/20 A3009 RMK A01 T02280201  RH  085%=      5-min Rain = 0
KSW1 141223Z 04012G17KT 23/20 A301 RMK A01 T02280201  RH  085%=      5-min Rain = 0
KSW1 141224Z 04013KT 23/20 A301 RMK A01 T02280201  RH  085%=      5-min Rain = 0
KSW1 141225Z 04013KT 23/20 A301 RMK A01 T02290201  RH  085%=      5-min Rain = 0
KSW1 141226Z 04015KT 23/20 A301 RMK A01 T02290202  RH  085%=      5-min Rain = 0
KSW1 141227Z 04014KT 23/20 A301 RMK A01 T02290202  RH  085%=      5-min Rain = 0
KSW1 141228Z 04015KT 23/20 A301 RMK A01 T02290202  RH  084%=      5-min Rain = 0
KSW1 141229Z 04014KT 23/20 A301 RMK A01 T02290202  RH  084%=      5-min Rain = 0
KSW1 141230Z 04015KT 23/20 A301 RMK A01 T02300202  RH  084%=      5-min Rain = 0
KSW1 141231Z 03015KT 23/20 A301 RMK A01 T02290202  RH  084%=      5-min Rain = 0
KSW1 141232Z 04013KT 23/20 A301 RMK A01 T02290202  RH  084%=      5-min Rain = 0
KSW1 141233Z 04015KT 23/20 A301 RMK A01 T02300202  RH  084%=      5-min Rain = 0
KSW1 141234Z 04014KT 23/20 A301 RMK A01 T02300203  RH  084%=      5-min Rain = 0
KSW1 141235Z 04013KT 23/20 A301 RMK A01 T02300202  RH  084%=      5-min Rain = 0
KSW1 141236Z 04015KT 23/20 A301 RMK A01 T02300202  RH  084%=      5-min Rain = 0
KSW1 141237Z 04014KT 23/20 A301 RMK A01 T02300202  RH  084%=      5-min Rain = 0
KSW1 141238Z 04012KT 23/20 A301 RMK A01 T02300202  RH  084%=      5-min Rain = 0
KSW1 141239Z 04012KT 23/20 A301 RMK A01 T02300202  RH  084%=      5-min Rain = 0
KSW1 141240Z 04012KT 23/20 A301 RMK A01 T02290202  RH  084%=      5-min Rain = 0
KSW1 141241Z 04012KT 23/20 A301 RMK A01 T02290202  RH  084%=      5-min Rain = 0
KSW1 141242Z 03011KT 23/20 A301 RMK A01 T02300202  RH  085%=      5-min Rain = 0
KSW1 141243Z 04015KT 23/20 A301 RMK A01 T02300202  RH  085%=      5-min Rain = 0
KSW1 141244Z 04015KT 23/20 A301 RMK A01 T02290203  RH  085%=      5-min Rain = 0
KSW1 141245Z 04013KT 23/20 A301 RMK A01 T02290203  RH  085%=      5-min Rain = 0
KSW1 141246Z 04015KT 23/20 A301 RMK A01 T02300203  RH  085%=      5-min Rain = 0
KSW1 141247Z 04015KT 23/20 A301 RMK A01 T02300203  RH  085%=      5-min Rain = 0
KSW1 141248Z 04016KT 23/20 A301 RMK A01 T02300204  RH  085%=      5-min Rain = 0
KSW1 141249Z 04016KT 23/20 A3011 RMK A01 T02290203  RH  085%=      5-min Rain = 0
KSW1 141250Z 04014KT 23/20 A3011 RMK A01 T02300204  RH  085%=      5-min Rain = 0
KSW1 141251Z 04015KT 23/20 A3011 RMK A01 T02300204  RH  085%=      5-min Rain = 0
KSW1 141252Z 03014KT 23/20 A3011 RMK A01 T02300204  RH  085%=      5-min Rain = 0
KSW1 141253Z 04013KT 23/20 A3011 RMK A01 T02300204  RH  085%=      5-min Rain = 0
KSW1 141254Z 04016KT 23/20 A3011 RMK A01 T02310204  RH  085%=      5-min Rain = 0
KSW1 141255Z 04015KT 23/20 A3011 RMK A01 T02300204  RH  085%=      5-min Rain = 0
KSW1 141256Z 04016KT 23/21 A3011 RMK A01 T02300205  RH  085%=      5-min Rain = 0
KSW1 141257Z 04015KT 23/21 A3011 RMK A01 T02310205  RH  085%=      5-min Rain = 0
KSW1 141258Z 04014KT 23/21 A3011 RMK A01 T02300205  RH  086%=      5-min Rain = 0
KSW1 141259Z 04011KT 23/21 A3011 RMK A01 T02300205  RH  086%=      5-min Rain = 0
KSW1 141300Z 04013KT 23/21 A3011 RMK A01 T02310205  RH  085%=      5-min Rain = 0
KSW1 141301Z 04014G19KT 23/21 A3011 RMK A01 T02310205  RH  085%=      5-min Rain = 0
KSW1 141302Z 04017KT 23/21 A3011 RMK A01 T02310205  RH  085%=      5-min Rain = 0
KSW1 141303Z 04013G20KT 23/21 A3011 RMK A01 T02310206  RH  086%=      5-min Rain = 0
KSW1 141304Z 05016G22KT 23/21 A3011 RMK A01 T02310206  RH  086%=      5-min Rain = 0
KSW1 141305Z 04016KT 23/21 A3011 RMK A01 T02310206  RH  086%=      5-min Rain = 0
KSW1 141306Z 04016KT 23/21 A3011 RMK A01 T02310206  RH  086%=      5-min Rain = 0
KSW1 141307Z 04015KT 23/21 A3011 RMK A01 T02310206  RH  086%=      5-min Rain = 0
KSW1 141308Z 04015G21KT 23/21 A3011 RMK A01 T02310206  RH  086%=      5-min Rain = 0
KSW1 141309Z 04017KT 23/21 A3011 RMK A01 T02310206  RH  086%=      5-min Rain = 0
KSW1 141310Z 04013KT 23/21 A3011 RMK A01 T02310206  RH  086%=      5-min Rain = 0
KSW1 141311Z 05012KT 23/21 A3011 RMK A01 T02310207  RH  086%=      5-min Rain = 0
KSW1 141312Z 05015KT 23/21 A3011 RMK A01 T02310206  RH  086%=      5-min Rain = 0
KSW1 141313Z 04016KT 23/21 A3011 RMK A01 T02320207  RH  086%=      5-min Rain = 0
KSW1 141314Z 05016KT 23/21 A3011 RMK A01 T02320207  RH  086%=      5-min Rain = 0
KSW1 141315Z 04013KT 23/21 A3011 RMK A01 T02310207  RH  086%=      5-min Rain = 0
KSW1 141316Z 04013G18KT 23/21 A3011 RMK A01 T02320207  RH  086%=      5-min Rain = 0
KSW1 141317Z 05017KT 23/21 A3011 RMK A01 T02320207  RH  086%=      5-min Rain = 0
KSW1 141318Z 05016G21KT 23/21 A3011 RMK A01 T02320207  RH  086%=      5-min Rain = 0
KSW1 141319Z 04012KT 23/21 A3011 RMK A01 T02320207  RH  086%=      5-min Rain = 0
KSW1 141320Z 06014KT 23/21 A3011 RMK A01 T02320207  RH  086%=      5-min Rain = 0
KSW1 141321Z 05013KT 23/21 A3011 RMK A01 T02320207  RH  086%=      5-min Rain = 0
KSW1 141322Z 06014KT 23/21 A3011 RMK A01 T02320207  RH  086%=      5-min Rain = 0
KSW1 141323Z 05015KT 23/21 A3011 RMK A01 T02320207  RH  086%=      5-min Rain = 0
KSW1 141324Z 05015KT 23/21 A3011 RMK A01 T02330207  RH  086%=      5-min Rain = 0
KSW1 141325Z 04014G19KT 23/21 A3011 RMK A01 T02330207  RH  086%=      5-min Rain = 0
KSW1 141326Z 04016KT 23/21 A3011 RMK A01 T02330207  RH  086%=      5-min Rain = 0
KSW1 141327Z 05015KT 23/21 A3011 RMK A01 T02330207  RH  086%=      5-min Rain = 0
KSW1 141328Z 04014KT 23/21 A3011 RMK A01 T02330207  RH  086%=      5-min Rain = 0
KSW1 141329Z 04015KT 23/21 A3011 RMK A01 T02330207  RH  086%=      5-min Rain = 0
KSW1 141330Z 05015KT 23/21 A3011 RMK A01 T02330207  RH  086%=      5-min Rain = 0
KSW1 141331Z 04014KT 23/21 A3011 RMK A01 T02330208  RH  086%=      5-min Rain = 0
KSW1 141332Z 04015KT 23/21 A3011 RMK A01 T02330208  RH  085%=      5-min Rain = 0
KSW1 141333Z 05017KT 23/21 A3012 RMK A01 T02330208  RH  085%=      5-min Rain = 0
KSW1 141334Z 05016KT 23/21 A3012 RMK A01 T02330208  RH  086%=      5-min Rain = 0
KSW1 141335Z 05014KT 23/21 A3012 RMK A01 T02330208  RH  086%=      5-min Rain = 0
KSW1 141336Z 05013KT 23/21 A3012 RMK A01 T02330208  RH  086%=      5-min Rain = 0
KSW1 141337Z 05012KT 23/21 A3012 RMK A01 T02340208  RH  085%=      5-min Rain = 0
KSW1 141338Z 04013KT 24/21 A3012 RMK A01 T02350208  RH  085%=      5-min Rain = 0
KSW1 141339Z 04013KT 24/21 A3012 RMK A01 T02360209  RH  085%=      5-min Rain = 0
KSW1 141340Z 04015KT 24/21 A3012 RMK A01 T02360208  RH  084%=      5-min Rain = 0
KSW1 141341Z 04014KT 24/21 A3012 RMK A01 T02360208  RH  085%=      5-min Rain = 0
KSW1 141342Z 04012KT 24/21 A3012 RMK A01 T02350208  RH  085%=      5-min Rain = 0
KSW1 141343Z 04017KT 24/21 A3012 RMK A01 T02360208  RH  085%=      5-min Rain = 0
KSW1 141344Z 05013KT 24/21 A3012 RMK A01 T02360208  RH  084%=      5-min Rain = 0
KSW1 141345Z 05012KT 24/21 A3012 RMK A01 T02360209  RH  085%=      5-min Rain = 0
KSW1 141346Z 04013KT 24/21 A3012 RMK A01 T02370209  RH  084%=      5-min Rain = 0
KSW1 141347Z 04017KT 24/21 A3012 RMK A01 T02370208  RH  084%=      5-min Rain = 0
KSW1 141348Z 04014G19KT 24/21 A3012 RMK A01 T02370209  RH  084%=      5-min Rain = 0
KSW1 141349Z 04017KT 24/21 A3012 RMK A01 T02370209  RH  084%=      5-min Rain = 0
KSW1 141350Z 04015KT 24/21 A3013 RMK A01 T02370209  RH  084%=      5-min Rain = 0
KSW1 141351Z 04016KT 24/21 A3013 RMK A01 T02370209  RH  084%=      5-min Rain = 0
KSW1 141352Z 04017KT 24/21 A3013 RMK A01 T02370208  RH  084%=      5-min Rain = 0
KSW1 141353Z 05015KT 24/21 A3013 RMK A01 T02360208  RH  084%=      5-min Rain = 0
KSW1 141354Z 05015KT 24/21 A3013 RMK A01 T02360209  RH  085%=      5-min Rain = 0
KSW1 141355Z 05017KT 24/21 A3013 RMK A01 T02370208  RH  084%=      5-min Rain = 0
KSW1 141356Z 04016G21KT 24/21 A3013 RMK A01 T02360208  RH  084%=      5-min Rain = 0
KSW1 141357Z 04017KT 24/21 A3013 RMK A01 T02360209  RH  084%=      5-min Rain = 0
KSW1 141358Z 04013KT 24/21 A3013 RMK A01 T02360208  RH  084%=      5-min Rain = 0
KSW1 141359Z 03014KT 24/21 A3013 RMK A01 T02370209  RH  084%=      5-min Rain = 0
KSW1 141400Z 04013KT 24/21 A3013 RMK A01 T02370209  RH  084%=      5-min Rain = 0
KSW1 141401Z 05015KT 24/21 A3013 RMK A01 T02380209  RH  084%=      5-min Rain = 0
KSW1 141402Z 04017KT 24/21 A3014 RMK A01 T02380208  RH  083%=      5-min Rain = 0
KSW1 141403Z 04016KT 24/21 A3014 RMK A01 T02380208  RH  084%=      5-min Rain = 0
KSW1 141404Z 03014KT 24/21 A3014 RMK A01 T02370209  RH  084%=      5-min Rain = 0
KSW1 141405Z 04016KT 24/21 A3014 RMK A01 T02370209  RH  084%=      5-min Rain = 0
KSW1 141406Z 05014KT 24/21 A3014 RMK A01 T02370208  RH  084%=      5-min Rain = 0
KSW1 141407Z 05012KT 24/21 A3014 RMK A01 T02370208  RH  084%=      5-min Rain = 0
KSW1 141408Z 04015G20KT 24/21 A3014 RMK A01 T02380208  RH  084%=      5-min Rain = 0
KSW1 141409Z 05017KT 24/21 A3014 RMK A01 T02380208  RH  083%=      5-min Rain = 0
KSW1 141410Z 05016KT 24/21 A3014 RMK A01 T02380208  RH  083%=      5-min Rain = 0
KSW1 141411Z 04016KT 24/21 A3014 RMK A01 T02380208  RH  084%=      5-min Rain = 0
KSW1 141412Z 04017KT 24/21 A3014 RMK A01 T02380208  RH  084%=      5-min Rain = 0
KSW1 141413Z 04017KT 24/21 A3014 RMK A01 T02380209  RH  084%=      5-min Rain = 0
KSW1 141414Z 04015KT 24/21 A3014 RMK A01 T02370208  RH  084%=      5-min Rain = 0
KSW1 141415Z 04016KT 24/21 A3014 RMK A01 T02370208  RH  084%=      5-min Rain = 0
KSW1 141416Z 04015KT 24/21 A3014 RMK A01 T02380208  RH  084%=      5-min Rain = 0
KSW1 141417Z 05017KT 24/21 A3014 RMK A01 T02380208  RH  084%=      5-min Rain = 0
KSW1 141418Z 05017KT 24/21 A3014 RMK A01 T02380208  RH  083%=      5-min Rain = 0
KSW1 141419Z 05015KT 24/21 A3014 RMK A01 T02380208  RH  083%=      5-min Rain = 0
KSW1 141420Z 05015KT 24/21 A3014 RMK A01 T02380208  RH  083%=      5-min Rain = 0
KSW1 141421Z 04017KT 24/21 A3014 RMK A01 T02390208  RH  083%=      5-min Rain = 0
KSW1 141422Z 04015KT 24/21 A3014 RMK A01 T02390207  RH  083%=      5-min Rain = 0
KSW1 141423Z 04013KT 24/21 A3014 RMK A01 T02390208  RH  083%=      5-min Rain = 0
KSW1 141424Z 04015KT 24/21 A3014 RMK A01 T02400208  RH  082%=      5-min Rain = 0
KSW1 141425Z 05013KT 24/21 A3014 RMK A01 T02400208  RH  082%=      5-min Rain = 0
KSW1 141426Z 05013KT 24/21 A3014 RMK A01 T02400208  RH  082%=      5-min Rain = 0
KSW1 141427Z 04013KT 24/21 A3014 RMK A01 T02410208  RH  082%=      5-min Rain = 0
KSW1 141428Z 04012KT 24/21 A3014 RMK A01 T02410208  RH  082%=      5-min Rain = 0
KSW1 141429Z 04016KT 24/21 A3014 RMK A01 T02410208  RH  082%=      5-min Rain = 0
KSW1 141430Z 04014KT 24/21 A3014 RMK A01 T02410207  RH  081%=      5-min Rain = 0
KSW1 141431Z 04015KT 24/21 A3015 RMK A01 T02410208  RH  082%=      5-min Rain = 0
KSW1 141432Z 04018KT 24/21 A3015 RMK A01 T02410208  RH  082%=      5-min Rain = 0
KSW1 141433Z 04015KT 24/21 A3015 RMK A01 T02400208  RH  082%=      5-min Rain = 0
KSW1 141434Z 05013KT 24/21 A3015 RMK A01 T02400208  RH  082%=      5-min Rain = 0
KSW1 141435Z 05012KT 24/21 A3015 RMK A01 T02410208  RH  082%=      5-min Rain = 0
KSW1 141436Z 04011KT 24/21 A3015 RMK A01 T02420209  RH  082%=      5-min Rain = 0
KSW1 141437Z 05014KT 24/21 A3015 RMK A01 T02430208  RH  081%=      5-min Rain = 0
KSW1 141438Z 04016KT 24/21 A3015 RMK A01 T02430207  RH  081%=      5-min Rain = 0
KSW1 141439Z 04013KT 24/21 A3015 RMK A01 T02420208  RH  081%=      5-min Rain = 0
KSW1 141440Z 05015KT 24/21 A3015 RMK A01 T02410207  RH  081%=      5-min Rain = 0
KSW1 141441Z 05015KT 24/21 A3015 RMK A01 T02420208  RH  081%=      5-min Rain = 0
KSW1 141442Z 05015KT 24/21 A3015 RMK A01 T02420207  RH  081%=      5-min Rain = 0
KSW1 141443Z 04015KT 24/21 A3015 RMK A01 T02410208  RH  081%=      5-min Rain = 0
KSW1 141444Z 04013KT 24/21 A3015 RMK A01 T02410207  RH  081%=      5-min Rain = 0
KSW1 141445Z 03015KT 24/21 A3015 RMK A01 T02420207  RH  081%=      5-min Rain = 0
KSW1 141446Z 03015KT 24/21 A3015 RMK A01 T02420207  RH  081%=      5-min Rain = 0
KSW1 141447Z 04016KT 24/21 A3015 RMK A01 T02420207  RH  081%=      5-min Rain = 0
KSW1 141448Z 04016KT 24/21 A3015 RMK A01 T02420207  RH  081%=      5-min Rain = 0
KSW1 141449Z 04013G18KT 24/21 A3015 RMK A01 T02420207  RH  081%=      5-min Rain = 0
KSW1 141450Z 04015KT 24/21 A3015 RMK A01 T02420207  RH  081%=      5-min Rain = 0
KSW1 141451Z 05015KT 24/21 A3015 RMK A01 T02420207  RH  081%=      5-min Rain = 0
KSW1 141452Z 05012KT 24/21 A3015 RMK A01 T02420207  RH  081%=      5-min Rain = 0
KSW1 141453Z 04014KT 24/21 A3015 RMK A01 T02420207  RH  081%=      5-min Rain = 0
KSW1 141454Z 04016KT 24/21 A3015 RMK A01 T02420207  RH  081%=      5-min Rain = 0
KSW1 141455Z 04014KT 24/21 A3016 RMK A01 T02430207  RH  081%=      5-min Rain = 0
KSW1 141456Z 05016KT 24/21 A3016 RMK A01 T02430207  RH  081%=      5-min Rain = 0
KSW1 141457Z 04016KT 24/21 A3016 RMK A01 T02430207  RH  080%=      5-min Rain = 0
KSW1 141458Z 04012KT 24/21 A3016 RMK A01 T02420207  RH  081%=      5-min Rain = 0
KSW1 141459Z 04010KT 24/21 A3016 RMK A01 T02420208  RH  081%=      5-min Rain = 0
KSW1 141500Z 04014KT 24/21 A3016 RMK A01 T02440208  RH  080%=      5-min Rain = 0
KSW1 141501Z 04014KT 24/21 A3016 RMK A01 T02440208  RH  080%=      5-min Rain = 0
KSW1 141502Z 04011KT 24/21 A3016 RMK A01 T02440208  RH  080%=      5-min Rain = 0
KSW1 141503Z 04014G19KT 24/21 A3016 RMK A01 T02440208  RH  080%=      5-min Rain = 0
KSW1 141504Z 03016KT 24/21 A3016 RMK A01 T02440207  RH  080%=      5-min Rain = 0
KSW1 141505Z 04013G18KT 24/21 A3016 RMK A01 T02440207  RH  080%=      5-min Rain = 0
KSW1 141506Z 03016KT 24/21 A3016 RMK A01 T02430207  RH  080%=      5-min Rain = 0
KSW1 141507Z 04015KT 24/21 A3016 RMK A01 T02430207  RH  080%=      5-min Rain = 0
KSW1 141508Z 04016KT 24/21 A3016 RMK A01 T02430207  RH  080%=      5-min Rain = 0
KSW1 141509Z 04016KT 24/21 A3016 RMK A01 T02420207  RH  081%=      5-min Rain = 0
KSW1 141510Z 03015KT 24/21 A3016 RMK A01 T02420207  RH  081%=      5-min Rain = 0
KSW1 141511Z 04011KT 24/21 A3016 RMK A01 T02420207  RH  080%=      5-min Rain = 0
KSW1 141512Z 04015KT 24/21 A3016 RMK A01 T02430206  RH  080%=      5-min Rain = 0
KSW1 141513Z 04017KT 24/21 A3016 RMK A01 T02430206  RH  080%=      5-min Rain = 0
KSW1 141514Z 04015KT 24/21 A3017 RMK A01 T02420207  RH  080%=      5-min Rain = 0
KSW1 141515Z 03014KT 24/21 A3017 RMK A01 T02420207  RH  081%=      5-min Rain = 0
KSW1 141516Z 04015KT 24/21 A3017 RMK A01 T02420206  RH  080%=      5-min Rain = 0
KSW1 141517Z 04012KT 24/21 A3017 RMK A01 T02420206  RH  080%=      5-min Rain = 0
KSW1 141518Z 04008KT 24/21 A3017 RMK A01 T02430207  RH  080%=      5-min Rain = 0
KSW1 141519Z 04010KT 24/21 A3017 RMK A01 T02440207  RH  080%=      5-min Rain = 0
KSW1 141520Z 03009KT 25/21 A3017 RMK A01 T02450207  RH  079%=      5-min Rain = 0
KSW1 141521Z 03011KT 25/21 A3017 RMK A01 T02460208  RH  079%=      5-min Rain = 0
KSW1 141522Z 04010KT 25/21 A3017 RMK A01 T02460208  RH  079%=      5-min Rain = 0
KSW1 141523Z 04014KT 25/21 A3017 RMK A01 T02460208  RH  079%=      5-min Rain = 0
KSW1 141524Z 04014KT 25/21 A3017 RMK A01 T02450207  RH  079%=      5-min Rain = 0
KSW1 141525Z 04015KT 25/21 A3017 RMK A01 T02450207  RH  079%=      5-min Rain = 0
KSW1 141526Z 04013KT 24/21 A3017 RMK A01 T02440206  RH  080%=      5-min Rain = 0
KSW1 141527Z 04012KT 24/21 A3017 RMK A01 T02440207  RH  080%=      5-min Rain = 0
KSW1 141528Z 04011KT 24/21 A3017 RMK A01 T02440207  RH  080%=      5-min Rain = 0
KSW1 141529Z 04011KT 25/21 A3017 RMK A01 T02450207  RH  080%=      5-min Rain = 0
KSW1 141530Z 04011KT 25/21 A3017 RMK A01 T02450207  RH  079%=      5-min Rain = 0
KSW1 141531Z 03013KT 25/21 A3017 RMK A01 T02460207  RH  079%=      5-min Rain = 0
KSW1 141532Z 02015KT 25/21 A3017 RMK A01 T02460206  RH  079%=      5-min Rain = 0
KSW1 141533Z 03015KT 25/21 A3017 RMK A01 T02460207  RH  079%=      5-min Rain = 0
KSW1 141534Z 04015KT 25/21 A3017 RMK A01 T02450206  RH  079%=      5-min Rain = 0
KSW1 141535Z 04014KT 25/21 A3017 RMK A01 T02450207  RH  079%=      5-min Rain = 0
KSW1 141536Z 04013KT 25/21 A3017 RMK A01 T02450207  RH  080%=      5-min Rain = 0
KSW1 141537Z 04015KT 25/21 A3017 RMK A01 T02450206  RH  079%=      5-min Rain = 0
KSW1 141538Z 04014KT 25/21 A3017 RMK A01 T02450206  RH  079%=      5-min Rain = 0
KSW1 141539Z 03015KT 25/21 A3017 RMK A01 T02450206  RH  079%=      5-min Rain = 0
KSW1 141540Z 03014KT 24/21 A3017 RMK A01 T02440206  RH  079%=      5-min Rain = 0
KSW1 141541Z 03014KT 25/21 A3017 RMK A01 T02450206  RH  079%=      5-min Rain = 0
KSW1 141542Z 03014KT 25/21 A3018 RMK A01 T02450206  RH  079%=      5-min Rain = 0
KSW1 141543Z 04014KT 25/21 A3018 RMK A01 T02460206  RH  079%=      5-min Rain = 0
KSW1 141544Z 04015KT 25/21 A3018 RMK A01 T02460206  RH  079%=      5-min Rain = 0
KSW1 141545Z 03015KT 25/21 A3018 RMK A01 T02460206  RH  079%=      5-min Rain = 0
KSW1 141546Z 03012KT 25/21 A3018 RMK A01 T02450206  RH  079%=      5-min Rain = 0
KSW1 141547Z 04012KT 25/21 A3018 RMK A01 T02450206  RH  079%=      5-min Rain = 0
KSW1 141548Z 04012KT 25/21 A3018 RMK A01 T02460206  RH  079%=      5-min Rain = 0
KSW1 141549Z 04015KT 25/21 A3018 RMK A01 T02460206  RH  078%=      5-min Rain = 0
KSW1 141550Z 05015KT 25/21 A3018 RMK A01 T02460206  RH  078%=      5-min Rain = 0
KSW1 141551Z 04010KT 25/21 A3018 RMK A01 T02460206  RH  079%=      5-min Rain = 0
KSW1 141552Z 05013KT 25/21 A3018 RMK A01 T02460207  RH  079%=      5-min Rain = 0
KSW1 141553Z 04012KT 25/21 A3018 RMK A01 T02460207  RH  078%=      5-min Rain = 0
KSW1 141554Z 03015KT 25/21 A3018 RMK A01 T02470206  RH  078%=      5-min Rain = 0
KSW1 141555Z 04013KT 25/21 A3018 RMK A01 T02470206  RH  078%=      5-min Rain = 0
KSW1 141556Z 03010KT 25/21 A3018 RMK A01 T02460206  RH  078%=      5-min Rain = 0
KSW1 141557Z 04011KT 25/21 A3018 RMK A01 T02470207  RH  078%=      5-min Rain = 0
KSW1 141558Z 04015KT 25/21 A3018 RMK A01 T02490206  RH  077%=      5-min Rain = 0
KSW1 141559Z 04012KT 25/21 A3018 RMK A01 T02490206  RH  077%=      5-min Rain = 0
KSW1 141600Z 04012KT 25/21 A3018 RMK A01 T02490207  RH  077%=      5-min Rain = 0
KSW1 141601Z 04013KT 25/21 A3018 RMK A01 T02490207  RH  078%=      5-min Rain = 0
KSW1 141602Z 04011KT 25/21 A3018 RMK A01 T02480207  RH  078%=      5-min Rain = 0
KSW1 141603Z 04011G16KT 25/21 A3018 RMK A01 T02490207  RH  078%=      5-min Rain = 0
KSW1 141604Z 03013KT 25/21 A3018 RMK A01 T02490207  RH  077%=      5-min Rain = 0
KSW1 141605Z 03016KT 25/21 A3018 RMK A01 T02490207  RH  077%=      5-min Rain = 0
KSW1 141606Z 03013KT 25/21 A3018 RMK A01 T02480207  RH  078%=      5-min Rain = 0
KSW1 141607Z 03014KT 25/21 A3018 RMK A01 T02470207  RH  078%=      5-min Rain = 0
KSW1 141608Z 02013KT 25/21 A3018 RMK A01 T02480207  RH  078%=      5-min Rain = 0
KSW1 141609Z 02012KT 25/21 A3018 RMK A01 T02480207  RH  078%=      5-min Rain = 0
KSW1 141610Z 02011KT 25/21 A3018 RMK A01 T02490208  RH  078%=      5-min Rain = 0
KSW1 141611Z 03013KT 25/21 A3018 RMK A01 T02510208  RH  077%=      5-min Rain = 0
KSW1 141612Z 02011KT 25/21 A3018 RMK A01 T02520208  RH  077%=      5-min Rain = 0
KSW1 141613Z 02013KT 25/21 A3018 RMK A01 T02520208  RH  077%=      5-min Rain = 0
KSW1 141614Z 02014KT 25/21 A3018 RMK A01 T02520208  RH  076%=      5-min Rain = 0
KSW1 141615Z 02014KT 25/21 A3018 RMK A01 T02520207  RH  076%=      5-min Rain = 0
KSW1 141616Z 02013KT 25/21 A3018 RMK A01 T02520207  RH  076%=      5-min Rain = 0
KSW1 141617Z 03009KT 25/21 A3018 RMK A01 T02530208  RH  076%=      5-min Rain = 0
KSW1 141618Z 04013KT 26/21 A3018 RMK A01 T02550208  RH  075%=      5-min Rain = 0
KSW1 141619Z 03009KT 26/21 A3018 RMK A01 T02550209  RH  075%=      5-min Rain = 0
KSW1 141620Z 02013KT 26/21 A3018 RMK A01 T02550208  RH  075%=      5-min Rain = 0
KSW1 141621Z 03013KT 26/21 A3018 RMK A01 T02550208  RH  075%=      5-min Rain = 0
KSW1 141622Z 04014KT 25/21 A3018 RMK A01 T02540207  RH  075%=      5-min Rain = 0
KSW1 141623Z 03015KT 25/21 A3018 RMK A01 T02520207  RH  076%=      5-min Rain = 0
KSW1 141624Z 03014KT 25/21 A3018 RMK A01 T02510207  RH  077%=      5-min Rain = 0
KSW1 141625Z 03013KT 25/21 A3018 RMK A01 T02500207  RH  077%=      5-min Rain = 0
KSW1 141626Z 03013KT 25/21 A3018 RMK A01 T02520208  RH  077%=      5-min Rain = 0
KSW1 141627Z 04011KT 25/21 A3018 RMK A01 T02540208  RH  076%=      5-min Rain = 0
KSW1 141628Z 04011KT 26/21 A3018 RMK A01 T02560208  RH  075%=      5-min Rain = 0
KSW1 141629Z 04013KT 26/21 A3018 RMK A01 T02570208  RH  074%=      5-min Rain = 0
KSW1 141630Z 04012KT 26/21 A3018 RMK A01 T02570208  RH  074%=      5-min Rain = 0
KSW1 141631Z 04011KT 26/21 A3018 RMK A01 T02560207  RH  074%=      5-min Rain = 0
KSW1 141632Z 04010KT 26/21 A3018 RMK A01 T02560208  RH  075%=      5-min Rain = 0
KSW1 141633Z 03010KT 26/21 A3018 RMK A01 T02590208  RH  074%=      5-min Rain = 0
KSW1 141634Z 04014KT 26/21 A3018 RMK A01 T02620209  RH  073%=      5-min Rain = 0
KSW1 141635Z 04014KT 26/21 A3018 RMK A01 T02620207  RH  072%=      5-min Rain = 0
KSW1 141636Z 03016KT 26/21 A3018 RMK A01 T02620207  RH  072%=      5-min Rain = 0
KSW1 141637Z 02014KT 26/21 A3018 RMK A01 T02610206  RH  072%=      5-min Rain = 0
KSW1 141638Z 03015KT 26/21 A3018 RMK A01 T02630207  RH  071%=      5-min Rain = 0
KSW1 141639Z 03014KT 26/21 A3018 RMK A01 T02630206  RH  071%=      5-min Rain = 0
KSW1 141640Z 03012KT 26/21 A3018 RMK A01 T02620207  RH  071%=      5-min Rain = 0
KSW1 141641Z 05012KT 26/21 A3018 RMK A01 T02620207  RH  071%=      5-min Rain = 0
KSW1 141642Z 04014KT 26/21 A3018 RMK A01 T02640206  RH  071%=      5-min Rain = 0
KSW1 141643Z 04013KT 27/21 A3018 RMK A01 T02650206  RH  070%=      5-min Rain = 0
KSW1 141644Z 05013KT 27/21 A3018 RMK A01 T02650207  RH  070%=      5-min Rain = 0
KSW1 141645Z 06011KT 27/21 A3018 RMK A01 T02670208  RH  070%=      5-min Rain = 0
KSW1 141646Z 05010KT 27/21 A3018 RMK A01 T02690208  RH  069%=      5-min Rain = 0
KSW1 141647Z 04012KT 27/21 A3018 RMK A01 T02680208  RH  070%=      5-min Rain = 0
KSW1 141648Z 03012KT 27/21 A3018 RMK A01 T02680207  RH  069%=      5-min Rain = 0
KSW1 141649Z 03012KT 27/21 A3018 RMK A01 T02680206  RH  069%=      5-min Rain = 0
KSW1 141650Z 03011KT 27/21 A3018 RMK A01 T02680207  RH  069%=      5-min Rain = 0
KSW1 141651Z 03010KT 27/21 A3018 RMK A01 T02710209  RH  069%=      5-min Rain = 0
KSW1 141652Z 04013KT 28/21 A3018 RMK A01 T02750208  RH  067%=      5-min Rain = 0
KSW1 141653Z 03012KT 28/21 A3018 RMK A01 T02760208  RH  066%=      5-min Rain = 0
KSW1 141654Z 02012KT 28/21 A3018 RMK A01 T02750208  RH  067%=      5-min Rain = 0
KSW1 141655Z 04013KT 27/21 A3018 RMK A01 T02740207  RH  067%=      5-min Rain = 0
KSW1 141656Z 05011KT 27/21 A3018 RMK A01 T02730207  RH  067%=      5-min Rain = 0
KSW1 141657Z 05010KT 27/21 A3018 RMK A01 T02740207  RH  067%=      5-min Rain = 0
KSW1 141658Z 06010G15KT 28/21 A3018 RMK A01 T02750208  RH  067%=      5-min Rain = 0
KSW1 141659Z 06011KT 28/21 A3018 RMK A01 T02760207  RH  066%=      5-min Rain = 0
KSW1 141700Z 05010KT 27/21 A3018 RMK A01 T02740206  RH  066%=      5-min Rain = 0
KSW1 141701Z 05011KT 27/21 A3018 RMK A01 T02740206  RH  067%=      5-min Rain = 0
KSW1 141702Z 05011KT 28/21 A3017 RMK A01 T02750207  RH  066%=      5-min Rain = 0
KSW1 141703Z 04012KT 28/21 A3017 RMK A01 T02770206  RH  065%=      5-min Rain = 0
KSW1 141704Z 04012KT 28/21 A3017 RMK A01 T02790206  RH  064%=      5-min Rain = 0
KSW1 141705Z 06011G16KT 28/21 A3017 RMK A01 T02780206  RH  065%=      5-min Rain = 0
KSW1 141706Z 05011KT 28/21 A3017 RMK A01 T02790206  RH  065%=      5-min Rain = 0
KSW1 141707Z 07011KT 28/21 A3017 RMK A01 T02790206  RH  064%=      5-min Rain = 0
KSW1 141708Z 06010KT 28/21 A3017 RMK A01 T02800207  RH  065%=      5-min Rain = 0
KSW1 141709Z 06010KT 28/21 A3017 RMK A01 T02830207  RH  064%=      5-min Rain = 0
KSW1 141710Z 07009KT 28/21 A3017 RMK A01 T02810207  RH  064%=      5-min Rain = 0
KSW1 141711Z 06011KT 28/21 A3017 RMK A01 T02800208  RH  065%=      5-min Rain = 0
KSW1 141712Z 05012KT 28/21 A3017 RMK A01 T02840208  RH  063%=      5-min Rain = 0
KSW1 141713Z 06011KT 29/21 A3017 RMK A01 T02850207  RH  063%=      5-min Rain = 0
KSW1 141714Z 06013KT 28/21 A3017 RMK A01 T02840206  RH  062%=      5-min Rain = 0
KSW1 141715Z 05011KT 28/21 A3017 RMK A01 T02840205  RH  062%=      5-min Rain = 0
KSW1 141716Z 05008KT 28/21 A3017 RMK A01 T02840206  RH  063%=      5-min Rain = 0
KSW1 141717Z 07009KT 28/21 A3017 RMK A01 T02820206  RH  063%=      5-min Rain = 0
KSW1 141718Z 07009KT 28/21 A3017 RMK A01 T02810206  RH  064%=      5-min Rain = 0
KSW1 141719Z 06007KT 28/21 A3017 RMK A01 T02790207  RH  065%=      5-min Rain = 0
KSW1 141720Z 04011KT 28/21 A3017 RMK A01 T02820208  RH  064%=      5-min Rain = 0
KSW1 141721Z 04010KT 29/21 A3017 RMK A01 T02870208  RH  062%=      5-min Rain = 0
KSW1 141722Z 05009KT 29/21 A3017 RMK A01 T02900207  RH  061%=      5-min Rain = 0
KSW1 141723Z 07011KT 29/21 A3017 RMK A01 T02910206  RH  060%=      5-min Rain = 0
KSW1 141724Z 06011KT 29/21 A3017 RMK A01 T02910205  RH  060%=      5-min Rain = 0
KSW1 141725Z 05012KT 29/21 A3017 RMK A01 T02930205  RH  059%=      5-min Rain = 0
KSW1 141726Z 05011KT 29/20 A3017 RMK A01 T02930203  RH  058%=      5-min Rain = 0
KSW1 141727Z 05012KT 29/20 A3017 RMK A01 T02890204  RH  060%=      5-min Rain = 0
KSW1 141728Z 06012KT 29/21 A3017 RMK A01 T02900206  RH  060%=      5-min Rain = 0
KSW1 141729Z 05012KT 29/21 A3017 RMK A01 T02930205  RH  059%=      5-min Rain = 0
KSW1 141730Z 04012KT 29/21 A3017 RMK A01 T02930205  RH  059%=      5-min Rain = 0
KSW1 141731Z 04012KT 29/20 A3017 RMK A01 T02920204  RH  059%=      5-min Rain = 0
KSW1 141732Z 06012KT 29/20 A3017 RMK A01 T02930204  RH  059%=      5-min Rain = 0
KSW1 141733Z 06010KT 30/21 A3016 RMK A01 T02950206  RH  059%=      5-min Rain = 0
KSW1 141734Z 06012KT 30/21 A3017 RMK A01 T03010206  RH  057%=      5-min Rain = 0
KSW1 141735Z 06011KT 30/21 A3016 RMK A01 T03000205  RH  057%=      5-min Rain = 0
KSW1 141736Z 07010KT 30/21 A3016 RMK A01 T02980205  RH  057%=      5-min Rain = 0
KSW1 141737Z 06013KT 30/21 A3016 RMK A01 T03000206  RH  057%=      5-min Rain = 0
KSW1 141738Z 06011KT 30/21 A3016 RMK A01 T03000206  RH  057%=      5-min Rain = 0
KSW1 141739Z 03010G15KT 30/21 A3016 RMK A01 T02990207  RH  058%=      5-min Rain = 0
KSW1 141740Z 05011KT 30/21 A3016 RMK A01 T03020206  RH  057%=      5-min Rain = 0
KSW1 141741Z 05011KT 30/20 A3016 RMK A01 T02980204  RH  057%=      5-min Rain = 0
KSW1 141742Z 03010KT 30/21 A3016 RMK A01 T02960205  RH  058%=      5-min Rain = 0
KSW1 141743Z 04010G16KT 30/21 A3016 RMK A01 T02970205  RH  058%=      5-min Rain = 0
KSW1 141744Z 04014KT 30/20 A3016 RMK A01 T03000204  RH  056%=      5-min Rain = 0
KSW1 141745Z 05014KT 30/20 A3016 RMK A01 T03000204  RH  056%=      5-min Rain = 0
KSW1 141746Z 04011KT 30/20 A3016 RMK A01 T02970204  RH  057%=      5-min Rain = 0
KSW1 141747Z 04010KT 30/21 A3016 RMK A01 T02960205  RH  058%=      5-min Rain = 0
KSW1 141748Z 04011KT 30/21 A3016 RMK A01 T02980206  RH  058%=      5-min Rain = 0
KSW1 141749Z 05010KT 30/21 A3016 RMK A01 T03000206  RH  057%=      5-min Rain = 0
KSW1 141750Z 04009G15KT 30/21 A3015 RMK A01 T03010205  RH  057%=      5-min Rain = 0
KSW1 141751Z 03011KT 30/21 A3015 RMK A01 T02990205  RH  057%=      5-min Rain = 0
KSW1 141752Z 03011KT 30/21 A3015 RMK A01 T02980205  RH  057%=      5-min Rain = 0
KSW1 141753Z 04009KT 30/21 A3015 RMK A01 T02970205  RH  058%=      5-min Rain = 0
KSW1 141754Z 07009KT 30/21 A3015 RMK A01 T03010205  RH  057%=      5-min Rain = 0
KSW1 141755Z 07010KT 30/21 A3015 RMK A01 T03010206  RH  057%=      5-min Rain = 0
KSW1 141756Z 03013G18KT 31/21 A3015 RMK A01 T03050207  RH  056%=      5-min Rain = 0
KSW1 141757Z 04012KT 31/21 A3015 RMK A01 T03100205  RH  053%=      5-min Rain = 0
KSW1 141758Z 05010KT 31/21 A3015 RMK A01 T03070205  RH  054%=      5-min Rain = 0
KSW1 141759Z 05009KT 31/21 A3015 RMK A01 T03060205  RH  055%=      5-min Rain = 0
KSW1 141800Z 05011KT 31/21 A3015 RMK A01 T03050205  RH  055%=      5-min Rain = 0
KSW1 141801Z 03011KT 31/21 A3015 RMK A01 T03060206  RH  055%=      5-min Rain = 0
KSW1 141802Z 03012KT 31/20 A3015 RMK A01 T03080204  RH  054%=      5-min Rain = 0
KSW1 141803Z 03013KT 31/21 A3015 RMK A01 T03080205  RH  054%=      5-min Rain = 0
KSW1 141804Z 04011KT 31/21 A3015 RMK A01 T03080205  RH  054%=      5-min Rain = 0
KSW1 141805Z 04011KT 31/21 A3015 RMK A01 T03100207  RH  054%=      5-min Rain = 0
KSW1 141806Z 04011KT 32/21 A3015 RMK A01 T03160208  RH  053%=      5-min Rain = 0
KSW1 141807Z 05012KT 32/21 A3015 RMK A01 T03170206  RH  052%=      5-min Rain = 0
KSW1 141808Z 05012KT 31/21 A3015 RMK A01 T03130205  RH  053%=      5-min Rain = 0
KSW1 141809Z 05010KT 31/20 A3015 RMK A01 T03080203  RH  053%=      5-min Rain = 0
KSW1 141810Z 06008KT 31/20 A3015 RMK A01 T03050204  RH  055%=      5-min Rain = 0
KSW1 141811Z 05006G11KT 31/21 A3015 RMK A01 T03060205  RH  055%=      5-min Rain = 0
KSW1 141812Z 07009KT 31/21 A3015 RMK A01 T03080205  RH  054%=      5-min Rain = 0
KSW1 141813Z 06009KT 31/21 A3014 RMK A01 T03080206  RH  055%=      5-min Rain = 0
KSW1 141814Z 06011KT 31/21 A3015 RMK A01 T03080205  RH  054%=      5-min Rain = 0
KSW1 141815Z 05014KT 31/20 A3014 RMK A01 T03100202  RH  053%=      5-min Rain = 0
KSW1 141816Z 05011G16KT 31/20 A3014 RMK A01 T03110201  RH  052%=      5-min Rain = 0
KSW1 141817Z 07011KT 31/20 A3014 RMK A01 T03130201  RH  051%=      5-min Rain = 0
KSW1 141818Z 06012KT 31/20 A3014 RMK A01 T03140201  RH  051%=      5-min Rain = 0
KSW1 141819Z 05013KT 31/20 A3014 RMK A01 T03140201  RH  051%=      5-min Rain = 0
KSW1 141820Z 04011KT 31/20 A3014 RMK A01 T03110201  RH  052%=      5-min Rain = 0
KSW1 141821Z 05011KT 31/20 A3014 RMK A01 T03080201  RH  053%=      5-min Rain = 0
KSW1 141822Z 06012KT 31/20 A3014 RMK A01 T03080200  RH  053%=      5-min Rain = 0
KSW1 141823Z 07014KT 31/20 A3014 RMK A01 T03100201  RH  052%=      5-min Rain = 0
KSW1 141824Z 06014KT 31/20 A3014 RMK A01 T03120201  RH  051%=      5-min Rain = 0
KSW1 141825Z 06012KT 31/20 A3014 RMK A01 T03140201  RH  051%=      5-min Rain = 0
KSW1 141826Z 06010KT 32/20 A3014 RMK A01 T03150202  RH  051%=      5-min Rain = 0
KSW1 141827Z 08010KT 31/20 A3014 RMK A01 T03140201  RH  051%=      5-min Rain = 0
KSW1 141828Z 07012KT 32/20 A3013 RMK A01 T03170200  RH  050%=      5-min Rain = 0
KSW1 141829Z 08013KT 32/20 A3013 RMK A01 T03180200  RH  050%=      5-min Rain = 0
KSW1 141830Z 07011KT 32/20 A3013 RMK A01 T03180202  RH  050%=      5-min Rain = 0
KSW1 141831Z 08010G15KT 32/20 A3013 RMK A01 T03190202  RH  050%=      5-min Rain = 0
KSW1 141832Z 07014KT 32/20 A3013 RMK A01 T03210202  RH  049%=      5-min Rain = 0
KSW1 141833Z 06013KT 32/20 A3013 RMK A01 T03230200  RH  048%=      5-min Rain = 0
KSW1 141834Z 07013KT 32/20 A3013 RMK A01 T03220200  RH  049%=      5-min Rain = 0
KSW1 141835Z 08011KT 32/20 A3013 RMK A01 T03180198  RH  049%=      5-min Rain = 0
KSW1 141836Z 08009G16KT 32/20 A3013 RMK A01 T03150199  RH  050%=      5-min Rain = 0
KSW1 141837Z 06014KT 32/20 A3013 RMK A01 T03180198  RH  049%=      5-min Rain = 0
KSW1 141838Z 08014KT 32/20 A3013 RMK A01 T03210198  RH  048%=      5-min Rain = 0
KSW1 141839Z 07018KT 32/20 A3013 RMK A01 T03230197  RH  048%=      5-min Rain = 0
KSW1 141840Z 07014KT 32/20 A3013 RMK A01 T03240197  RH  047%=      5-min Rain = 0
KSW1 141841Z 06010KT 32/20 A3013 RMK A01 T03220198  RH  048%=      5-min Rain = 0
KSW1 141842Z 04013KT 32/20 A3013 RMK A01 T03240199  RH  048%=      5-min Rain = 0
KSW1 141843Z 05013G18KT 33/20 A3013 RMK A01 T03260198  RH  047%=      5-min Rain = 0
KSW1 141844Z 04011KT 32/20 A3013 RMK A01 T03230199  RH  048%=      5-min Rain = 0
KSW1 141845Z 04014G19KT 32/20 A3013 RMK A01 T03240199  RH  048%=      5-min Rain = 0
KSW1 141846Z 04015KT 33/20 A3013 RMK A01 T03260196  RH  046%=      5-min Rain = 0
KSW1 141847Z 05012KT 33/20 A3013 RMK A01 T03280195  RH  046%=      5-min Rain = 0
KSW1 141848Z 06011KT 33/20 A3013 RMK A01 T03280197  RH  046%=      5-min Rain = 0
KSW1 141849Z 04010KT 33/20 A3013 RMK A01 T03320199  RH  046%=      5-min Rain = 0
KSW1 141850Z 03013KT 33/20 A3013 RMK A01 T03320200  RH  046%=      5-min Rain = 0
KSW1 141851Z 03009KT 33/20 A3013 RMK A01 T03290199  RH  046%=      5-min Rain = 0
KSW1 141852Z 02009KT 33/20 A3012 RMK A01 T03260200  RH  047%=      5-min Rain = 0
KSW1 141853Z 04009G14KT 33/20 A3012 RMK A01 T03270200  RH  047%=      5-min Rain = 0
KSW1 141854Z 06010KT 33/20 A3013 RMK A01 T03290200  RH  047%=      5-min Rain = 0
KSW1 141855Z 07008KT 33/20 A3012 RMK A01 T03280202  RH  047%=      5-min Rain = 0
KSW1 141856Z 09009KT 33/20 A3012 RMK A01 T03300202  RH  047%=      5-min Rain = 0
KSW1 141857Z 06014KT 33/20 A3012 RMK A01 T03270201  RH  047%=      5-min Rain = 0
KSW1 141858Z 04012KT 33/20 A3012 RMK A01 T03270200  RH  047%=      5-min Rain = 0
KSW1 141859Z 04010KT 33/20 A3012 RMK A01 T03260201  RH  048%=      5-min Rain = 0
KSW1 141900Z 04008KT 33/20 A3012 RMK A01 T03290202  RH  047%=      5-min Rain = 0
KSW1 141901Z 04010KT 33/20 A3012 RMK A01 T03310201  RH  047%=      5-min Rain = 0
KSW1 141902Z 05009KT 33/20 A3012 RMK A01 T03270201  RH  047%=      5-min Rain = 0
KSW1 141903Z 05009KT 33/20 A3012 RMK A01 T03290202  RH  047%=      5-min Rain = 0
KSW1 141904Z 07010KT 34/20 A3012 RMK A01 T03350202  RH  046%=      5-min Rain = 0
KSW1 141905Z 06012G17KT 34/20 A3012 RMK A01 T03360201  RH  045%=      5-min Rain = 0
KSW1 141906Z 06013KT 34/20 A3012 RMK A01 T03350200  RH  045%=      5-min Rain = 0
KSW1 141907Z 05010KT 33/20 A3012 RMK A01 T03340199  RH  045%=      5-min Rain = 0
KSW1 141908Z 03010KT 33/20 A3012 RMK A01 T03320198  RH  045%=      5-min Rain = 0
KSW1 141909Z 05013KT 33/20 A3012 RMK A01 T03320198  RH  046%=      5-min Rain = 0
KSW1 141910Z 05010KT 33/20 A3012 RMK A01 T03330198  RH  045%=      5-min Rain = 0
KSW1 141911Z 04011KT 33/20 A3012 RMK A01 T03320199  RH  046%=      5-min Rain = 0
KSW1 141912Z 05007KT 33/20 A3012 RMK A01 T03330200  RH  046%=      5-min Rain = 0
KSW1 141913Z 02008KT 33/20 A3011 RMK A01 T03310200  RH  046%=      5-min Rain = 0
KSW1 141914Z 07013G21KT 33/20 A3011 RMK A01 T03330201  RH  046%=      5-min Rain = 0
KSW1 141915Z 09012KT 34/20 A3011 RMK A01 T03400202  RH  044%=      5-min Rain = 0
KSW1 141916Z 05015KT 34/20 A3011 RMK A01 T03400197  RH  043%=      5-min Rain = 0
KSW1 141917Z 04014KT 34/19 A3012 RMK A01 T03370194  RH  043%=      5-min Rain = 0
KSW1 141918Z 03010KT 33/20 A3011 RMK A01 T03340195  RH  044%=      5-min Rain = 0
KSW1 141919Z 04013KT 33/20 A3011 RMK A01 T03320196  RH  045%=      5-min Rain = 0
KSW1 141920Z 04013KT 33/20 A3011 RMK A01 T03310197  RH  045%=      5-min Rain = 0
KSW1 141921Z 05008KT 33/20 A3011 RMK A01 T03300197  RH  046%=      5-min Rain = 0
KSW1 141922Z 05006KT 33/20 A3011 RMK A01 T03290198  RH  046%=      5-min Rain = 0
KSW1 141923Z 03012G17KT 33/20 A3011 RMK A01 T03290197  RH  046%=      5-min Rain = 0
KSW1 141924Z 05012KT 33/20 A3011 RMK A01 T03330197  RH  045%=      5-min Rain = 0
KSW1 141925Z 04007G12KT 33/20 A3011 RMK A01 T03330198  RH  045%=      5-min Rain = 0
KSW1 141926Z 07009KT 33/20 A3011 RMK A01 T03340199  RH  045%=      5-min Rain = 0
KSW1 141927Z 08009KT 34/20 A3011 RMK A01 T03360199  RH  045%=      5-min Rain = 0
KSW1 141928Z 09010KT 34/20 A3011 RMK A01 T03360200  RH  045%=      5-min Rain = 0
KSW1 141929Z 08012KT 34/20 A3011 RMK A01 T03350199  RH  045%=      5-min Rain = 0
KSW1 141930Z 07008KT 33/20 A3011 RMK A01 T03330199  RH  045%=      5-min Rain = 0
KSW1 141931Z 07009G14KT 33/20 A3011 RMK A01 T03330199  RH  045%=      5-min Rain = 0
KSW1 141932Z 04009KT 34/20 A3011 RMK A01 T03380199  RH  044%=      5-min Rain = 0
KSW1 141933Z 05008G14KT 34/20 A3011 RMK A01 T03390198  RH  044%=      5-min Rain = 0
KSW1 141934Z 06010KT 34/20 A3011 RMK A01 T03390199  RH  044%=      5-min Rain = 0
KSW1 141935Z 04012KT 34/20 A301 RMK A01 T03390198  RH  043%=      5-min Rain = 0
KSW1 141936Z 07012KT 34/20 A301 RMK A01 T03410198  RH  043%=      5-min Rain = 0
KSW1 141937Z 07012KT 34/20 A301 RMK A01 T03410197  RH  043%=      5-min Rain = 0
KSW1 141938Z 04015KT 34/20 A301 RMK A01 T03380197  RH  044%=      5-min Rain = 0
KSW1 141939Z 06013G19KT 34/20 A301 RMK A01 T03370198  RH  044%=      5-min Rain = 0
KSW1 141940Z 07014KT 34/20 A301 RMK A01 T03400196  RH  043%=      5-min Rain = 0
KSW1 141941Z 07014KT 34/20 A301 RMK A01 T03400196  RH  043%=      5-min Rain = 0
KSW1 141942Z 07009KT 34/19 A301 RMK A01 T03370193  RH  043%=      5-min Rain = 0
KSW1 141943Z 07009KT 33/19 A301 RMK A01 T03320194  RH  044%=      5-min Rain = 0
KSW1 141944Z 06007KT 33/20 A301 RMK A01 T03310195  RH  045%=      5-min Rain = 0
KSW1 141945Z 06009G15KT 33/20 A301 RMK A01 T03290197  RH  046%=      5-min Rain = 0
KSW1 141946Z 07013KT 33/20 A301 RMK A01 T03340199  RH  045%=      5-min Rain = 0
KSW1 141947Z 07011KT 34/20 A3009 RMK A01 T03380198  RH  044%=      5-min Rain = 0
KSW1 141948Z 07014KT 34/20 A3009 RMK A01 T03370196  RH  044%=      5-min Rain = 0
KSW1 141949Z 07012KT 34/20 A3009 RMK A01 T03350197  RH  044%=      5-min Rain = 0
KSW1 141950Z 07012G19KT 34/20 A3009 RMK A01 T03350198  RH  044%=      5-min Rain = 0
KSW1 141951Z 05010G15KT 33/20 A3009 RMK A01 T03340197  RH  045%=      5-min Rain = 0
KSW1 141952Z 04007KT 33/20 A3009 RMK A01 T03310197  RH  045%=      5-min Rain = 0
KSW1 141953Z 05008KT 33/20 A3009 RMK A01 T03310197  RH  045%=      5-min Rain = 0
KSW1 141954Z 06010KT 33/20 A3009 RMK A01 T03320197  RH  045%=      5-min Rain = 0
KSW1 141955Z 06010KT 34/20 A3009 RMK A01 T03350198  RH  044%=      5-min Rain = 0
KSW1 141956Z 05010G15KT 34/20 A3009 RMK A01 T03380197  RH  044%=      5-min Rain = 0
KSW1 141957Z 04013KT 34/20 A3009 RMK A01 T03380196  RH  043%=      5-min Rain = 0
KSW1 141958Z 04011KT 34/20 A3009 RMK A01 T03400196  RH  043%=      5-min Rain = 0
KSW1 141959Z 02014KT 35/19 A3009 RMK A01 T03450194  RH  041%=      5-min Rain = 0
KSW1 142000Z 02013KT 34/19 A3008 RMK A01 T03430191  RH  041%=      5-min Rain = 0
KSW1 142001Z 02013KT 34/19 A3008 RMK A01 T03410190  RH  041%=      5-min Rain = 0
KSW1 142002Z 00010KT 34/19 A3008 RMK A01 T03370191  RH  042%=      5-min Rain = 0
KSW1 142003Z 02007KT 34/19 A3008 RMK A01 T03350193  RH  043%=      5-min Rain = 0
KSW1 142004Z 04011KT 34/20 A3008 RMK A01 T03370195  RH  043%=      5-min Rain = 0
KSW1 142005Z 04008KT 34/20 A3008 RMK A01 T03360196  RH  044%=      5-min Rain = 0
KSW1 142006Z 03008G14KT 34/20 A3008 RMK A01 T03360196  RH  044%=      5-min Rain = 0
KSW1 142007Z 03010G15KT 34/20 A3008 RMK A01 T03390197  RH  043%=      5-min Rain = 0
KSW1 142008Z 01013G18KT 34/20 A3008 RMK A01 T03440198  RH  043%=      5-min Rain = 0
KSW1 142009Z 02016KT 35/20 A3008 RMK A01 T03460197  RH  042%=      5-min Rain = 0
KSW1 142010Z 02013KT 35/20 A3008 RMK A01 T03450196  RH  042%=      5-min Rain = 0
KSW1 142011Z 02010KT 34/20 A3008 RMK A01 T03440195  RH  042%=      5-min Rain = 0
KSW1 142012Z 05011G16KT 34/20 A3008 RMK A01 T03430195  RH  042%=      5-min Rain = 0
KSW1 142013Z 05013KT 34/19 A3008 RMK A01 T03440193  RH  041%=      5-min Rain = 0
KSW1 142014Z 04012KT 34/19 A3008 RMK A01 T03440191  RH  041%=      5-min Rain = 0
KSW1 142015Z 03012KT 34/20 A3008 RMK A01 T03400195  RH  043%=      5-min Rain = 0
KSW1 142016Z 02012KT 34/20 A3008 RMK A01 T03390196  RH  043%=      5-min Rain = 0
KSW1 142017Z 03012KT 34/20 A3008 RMK A01 T03400196  RH  043%=      5-min Rain = 0
KSW1 142018Z 05010KT 34/20 A3008 RMK A01 T03380195  RH  043%=      5-min Rain = 0
KSW1 142019Z 05009KT 34/20 A3008 RMK A01 T03370197  RH  044%=      5-min Rain = 0
KSW1 142020Z 07006KT 34/20 A3008 RMK A01 T03400195  RH  043%=      5-min Rain = 0
KSW1 142021Z 08004KT 34/20 A3007 RMK A01 T03400196  RH  043%=      5-min Rain = 0
KSW1 142022Z 06010G15KT 34/20 A3007 RMK A01 T03410197  RH  043%=      5-min Rain = 0
KSW1 142023Z 06013KT 34/19 A3008 RMK A01 T03420194  RH  042%=      5-min Rain = 0
KSW1 142024Z 06009KT 34/19 A3008 RMK A01 T03400194  RH  042%=      5-min Rain = 0
KSW1 142025Z 07010KT 34/20 A3008 RMK A01 T03410195  RH  042%=      5-min Rain = 0
KSW1 142026Z 04012KT 34/19 A3008 RMK A01 T03400194  RH  042%=      5-min Rain = 0
KSW1 142027Z 05011KT 34/19 A3008 RMK A01 T03420194  RH  042%=      5-min Rain = 0
KSW1 142028Z 04008G14KT 34/20 A3008 RMK A01 T03400195  RH  043%=      5-min Rain = 0
KSW1 142029Z 04013KT 34/20 A3008 RMK A01 T03420196  RH  042%=      5-min Rain = 0
KSW1 142030Z 04010KT 34/19 A3008 RMK A01 T03440194  RH  041%=      5-min Rain = 0
KSW1 142031Z 04010KT 34/19 A3008 RMK A01 T03420193  RH  042%=      5-min Rain = 0
KSW1 142032Z 06010KT 34/19 A3007 RMK A01 T03390193  RH  042%=      5-min Rain = 0
KSW1 142033Z 07011KT 34/19 A3007 RMK A01 T03410193  RH  042%=      5-min Rain = 0
KSW1 142034Z 04016KT 34/19 A3007 RMK A01 T03410191  RH  041%=      5-min Rain = 0
KSW1 142035Z 04014KT 34/19 A3007 RMK A01 T03420190  RH  041%=      5-min Rain = 0
KSW1 142036Z 03010KT 35/19 A3007 RMK A01 T03450191  RH  041%=      5-min Rain = 0
KSW1 142037Z 02011KT 35/19 A3007 RMK A01 T03450194  RH  041%=      5-min Rain = 0
KSW1 142038Z 05012KT 35/20 A3007 RMK A01 T03470197  RH  041%=      5-min Rain = 0
KSW1 142039Z 06010KT 35/20 A3007 RMK A01 T03490198  RH  041%=      5-min Rain = 0
KSW1 142040Z 05008KT 35/20 A3007 RMK A01 T03490197  RH  041%=      5-min Rain = 0
KSW1 142041Z 02010KT 35/20 A3007 RMK A01 T03470196  RH  041%=      5-min Rain = 0
KSW1 142042Z 01010KT 35/20 A3007 RMK A01 T03460196  RH  041%=      5-min Rain = 0
KSW1 142043Z 03008KT 34/20 A3007 RMK A01 T03440195  RH  042%=      5-min Rain = 0
KSW1 142044Z 04010G15KT 34/20 A3007 RMK A01 T03420195  RH  042%=      5-min Rain = 0
KSW1 142045Z 05012KT 35/20 A3007 RMK A01 T03470195  RH  041%=      5-min Rain = 0
KSW1 142046Z 05012KT 35/19 A3007 RMK A01 T03460192  RH  040%=      5-min Rain = 0
KSW1 142047Z 05013KT 34/19 A3007 RMK A01 T03420192  RH  041%=      5-min Rain = 0
KSW1 142048Z 05016KT 34/19 A3007 RMK A01 T03420191  RH  041%=      5-min Rain = 0
KSW1 142049Z 06016KT 34/19 A3007 RMK A01 T03410191  RH  041%=      5-min Rain = 0
KSW1 142050Z 06014KT 34/19 A3007 RMK A01 T03400190  RH  041%=      5-min Rain = 0
KSW1 142051Z 06012KT 34/19 A3007 RMK A01 T03410190  RH  041%=      5-min Rain = 0
KSW1 142052Z 06011KT 34/19 A3007 RMK A01 T03410191  RH  041%=      5-min Rain = 0
KSW1 142053Z 06007KT 34/19 A3007 RMK A01 T03400192  RH  042%=      5-min Rain = 0
KSW1 142054Z 05010G16KT 34/19 A3007 RMK A01 T03390192  RH  042%=      5-min Rain = 0
KSW1 142055Z 04013KT 34/19 A3007 RMK A01 T03410194  RH  042%=      5-min Rain = 0
KSW1 142056Z 04010KT 34/19 A3007 RMK A01 T03440193  RH  041%=      5-min Rain = 0
KSW1 142057Z 03011KT 34/19 A3007 RMK A01 T03440192  RH  041%=      5-min Rain = 0
KSW1 142058Z 02011KT 34/19 A3006 RMK A01 T03440188  RH  040%=      5-min Rain = 0
KSW1 142059Z 03009G15KT 34/19 A3006 RMK A01 T03430188  RH  040%=      5-min Rain = 0
KSW1 142100Z 05013KT 35/19 A3006 RMK A01 T03460188  RH  040%=      5-min Rain = 0
KSW1 142101Z 04016KT 35/19 A3006 RMK A01 T03460187  RH  039%=      5-min Rain = 0
KSW1 142102Z 03011KT 34/19 A3006 RMK A01 T03420187  RH  040%=      5-min Rain = 0
KSW1 142103Z 04010KT 34/19 A3006 RMK A01 T03410188  RH  040%=      5-min Rain = 0
KSW1 142104Z 04011G17KT 34/19 A3006 RMK A01 T03420190  RH  041%=      5-min Rain = 0
KSW1 142105Z 04015KT 35/19 A3006 RMK A01 T03450193  RH  041%=      5-min Rain = 0
KSW1 142106Z 04014KT 35/19 A3006 RMK A01 T03450194  RH  041%=      5-min Rain = 0
KSW1 142107Z 04013KT 34/19 A3006 RMK A01 T03440192  RH  041%=      5-min Rain = 0
KSW1 142108Z 03011KT 34/19 A3006 RMK A01 T03410191  RH  041%=      5-min Rain = 0
KSW1 142109Z 04011KT 34/19 A3006 RMK A01 T03430191  RH  041%=      5-min Rain = 0
KSW1 142110Z 05007KT 34/19 A3006 RMK A01 T03430191  RH  041%=      5-min Rain = 0
KSW1 142111Z 05007KT 34/19 A3005 RMK A01 T03430192  RH  041%=      5-min Rain = 0
KSW1 142112Z 05013KT 35/19 A3006 RMK A01 T03460193  RH  041%=      5-min Rain = 0
KSW1 142113Z 05012KT 35/19 A3006 RMK A01 T03450189  RH  040%=      5-min Rain = 0
KSW1 142114Z 06012KT 34/19 A3006 RMK A01 T03420190  RH  041%=      5-min Rain = 0
KSW1 142115Z 04008KT 34/19 A3006 RMK A01 T03420189  RH  041%=      5-min Rain = 0
KSW1 142116Z 02010G17KT 34/19 A3006 RMK A01 T03440190  RH  040%=      5-min Rain = 0
KSW1 142117Z 04016KT 35/19 A3006 RMK A01 T03460188  RH  039%=      5-min Rain = 0
KSW1 142118Z 04013G18KT 34/19 A3006 RMK A01 T03430188  RH  040%=      5-min Rain = 0
KSW1 142119Z 05011G16KT 34/19 A3006 RMK A01 T03400188  RH  041%=      5-min Rain = 0
KSW1 142120Z 04012KT 34/19 A3006 RMK A01 T03400188  RH  041%=      5-min Rain = 0
KSW1 142121Z 07010KT 34/19 A3006 RMK A01 T03400186  RH  040%=      5-min Rain = 0
KSW1 142122Z 06008KT 34/19 A3006 RMK A01 T03390187  RH  041%=      5-min Rain = 0
KSW1 142123Z 04007KT 34/19 A3005 RMK A01 T03420188  RH  040%=      5-min Rain = 0
KSW1 142124Z 05011KT 35/19 A3005 RMK A01 T03460186  RH  039%=      5-min Rain = 0
KSW1 142125Z 03010KT 35/19 A3005 RMK A01 T03490185  RH  038%=      5-min Rain = 0
KSW1 142126Z 04008KT 35/18 A3005 RMK A01 T03490184  RH  038%=      5-min Rain = 0
KSW1 142127Z 04006KT 35/18 A3005 RMK A01 T03460181  RH  038%=      5-min Rain = 0
KSW1 142128Z 02006KT 34/18 A3005 RMK A01 T03420181  RH  039%=      5-min Rain = 0
KSW1 142129Z 03007KT 34/18 A3005 RMK A01 T03410183  RH  039%=      5-min Rain = 0
KSW1 142130Z 03006KT 34/19 A3005 RMK A01 T03430186  RH  040%=      5-min Rain = 0
KSW1 142131Z 05009KT 34/19 A3006 RMK A01 T03440190  RH  040%=      5-min Rain = 0
KSW1 142132Z 06010G15KT 35/19 A3006 RMK A01 T03470194  RH  041%=      5-min Rain = 0
KSW1 142133Z 06008KT 35/19 A3005 RMK A01 T03480192  RH  040%=      5-min Rain = 0
KSW1 142134Z 05009KT 35/19 A3005 RMK A01 T03450192  RH  041%=      5-min Rain = 0
KSW1 142135Z 02010KT 35/19 A3006 RMK A01 T03470193  RH  040%=      5-min Rain = 0
KSW1 142136Z 03014KT 35/19 A3005 RMK A01 T03490191  RH  040%=      5-min Rain = 0
KSW1 142137Z 03013KT 35/19 A3005 RMK A01 T03480190  RH  040%=      5-min Rain = 0
KSW1 142138Z 05015KT 35/19 A3006 RMK A01 T03480189  RH  039%=      5-min Rain = 0
KSW1 142139Z 07014KT 35/18 A3006 RMK A01 T03470182  RH  038%=      5-min Rain = 0
KSW1 142140Z 08012KT 35/18 A3006 RMK A01 T03450180  RH  038%=      5-min Rain = 0
KSW1 142141Z 08012KT 34/18 A3006 RMK A01 T03440184  RH  039%=      5-min Rain = 0
KSW1 142142Z 08013KT 35/19 A3006 RMK A01 T03460186  RH  039%=      5-min Rain = 0
KSW1 142143Z 08011KT 35/19 A3006 RMK A01 T03460187  RH  039%=      5-min Rain = 0
KSW1 142144Z 09009KT 34/18 A3005 RMK A01 T03430184  RH  039%=      5-min Rain = 0
KSW1 142145Z 09011KT 34/18 A3005 RMK A01 T03410179  RH  038%=      5-min Rain = 0
KSW1 142146Z 07010KT 34/19 A3005 RMK A01 T03410187  RH  040%=      5-min Rain = 0
KSW1 142147Z 06009G14KT 34/19 A3005 RMK A01 T03410187  RH  040%=      5-min Rain = 0
KSW1 142148Z 05010KT 34/19 A3005 RMK A01 T03410186  RH  040%=      5-min Rain = 0
KSW1 142149Z 05009KT 34/18 A3005 RMK A01 T03420184  RH  039%=      5-min Rain = 0
KSW1 142150Z 08008KT 35/19 A3005 RMK A01 T03470186  RH  039%=      5-min Rain = 0
KSW1 142151Z 06009KT 35/19 A3005 RMK A01 T03510185  RH  038%=      5-min Rain = 0
KSW1 142152Z 03010KT 35/19 A3005 RMK A01 T03510186  RH  038%=      5-min Rain = 0
KSW1 142153Z 04012KT 35/19 A3005 RMK A01 T03490187  RH  038%=      5-min Rain = 0
KSW1 142154Z 07013KT 35/18 A3005 RMK A01 T03480182  RH  037%=      5-min Rain = 0
KSW1 142155Z 07010KT 35/18 A3005 RMK A01 T03480180  RH  037%=      5-min Rain = 0
KSW1 142156Z 07008KT 35/18 A3005 RMK A01 T03450180  RH  038%=      5-min Rain = 0
KSW1 142157Z 05005KT 35/18 A3005 RMK A01 T03450181  RH  038%=      5-min Rain = 0
KSW1 142158Z 05009KT 35/18 A3005 RMK A01 T03460184  RH  038%=      5-min Rain = 0
KSW1 142159Z 03012KT 35/19 A3005 RMK A01 T03460185  RH  039%=      5-min Rain = 0
KSW1 142200Z 04012KT 35/18 A3005 RMK A01 T03450182  RH  038%=      5-min Rain = 0
KSW1 142201Z 03009KT 35/18 A3005 RMK A01 T03450184  RH  039%=      5-min Rain = 0
KSW1 142202Z 04006KT 34/18 A3005 RMK A01 T03430182  RH  039%=      5-min Rain = 0
KSW1 142203Z 05006KT 34/18 A3005 RMK A01 T03420181  RH  039%=      5-min Rain = 0
KSW1 142204Z 02007KT 34/18 A3005 RMK A01 T03410182  RH  039%=      5-min Rain = 0
KSW1 142205Z 03013G19KT 35/18 A3005 RMK A01 T03450183  RH  038%=      5-min Rain = 0
KSW1 142206Z 07014KT 35/19 A3005 RMK A01 T03500185  RH  038%=      5-min Rain = 0
KSW1 142207Z 05009KT 35/18 A3005 RMK A01 T03480184  RH  038%=      5-min Rain = 0
KSW1 142208Z 04006G11KT 34/18 A3005 RMK A01 T03430182  RH  038%=      5-min Rain = 0
KSW1 142209Z 05011KT 34/18 A3005 RMK A01 T03420183  RH  039%=      5-min Rain = 0
KSW1 142210Z 05011KT 35/18 A3005 RMK A01 T03450183  RH  038%=      5-min Rain = 0
KSW1 142211Z 05011KT 35/18 A3005 RMK A01 T03460179  RH  037%=      5-min Rain = 0
KSW1 142212Z 05008KT 35/18 A3005 RMK A01 T03450179  RH  037%=      5-min Rain = 0
KSW1 142213Z 08006KT 35/18 A3005 RMK A01 T03460178  RH  037%=      5-min Rain = 0
KSW1 142214Z 06008KT 35/18 A3005 RMK A01 T03470178  RH  037%=      5-min Rain = 0
KSW1 142215Z 04008KT 35/18 A3005 RMK A01 T03460177  RH  037%=      5-min Rain = 0
KSW1 142216Z 05007KT 34/18 A3005 RMK A01 T03420179  RH  038%=      5-min Rain = 0
KSW1 142217Z 04001KT 34/18 A3005 RMK A01 T03390178  RH  039%=      5-min Rain = 0
KSW1 142218Z 32003KT 34/18 A3005 RMK A01 T03380179  RH  039%=      5-min Rain = 0
KSW1 142219Z 06004KT 34/18 A3005 RMK A01 T03380181  RH  039%=      5-min Rain = 0
KSW1 142220Z 07013KT 34/19 A3005 RMK A01 T03430185  RH  039%=      5-min Rain = 0
KSW1 142221Z 06013KT 35/19 A3005 RMK A01 T03460186  RH  039%=      5-min Rain = 0
KSW1 142222Z 05011KT 35/19 A3005 RMK A01 T03460186  RH  039%=      5-min Rain = 0
KSW1 142223Z 08010KT 35/19 A3005 RMK A01 T03450186  RH  039%=      5-min Rain = 0
KSW1 142224Z 08006KT 35/19 A3005 RMK A01 T03460186  RH  039%=      5-min Rain = 0
KSW1 142225Z 08008KT 35/19 A3005 RMK A01 T03460186  RH  039%=      5-min Rain = 0
KSW1 142226Z 06011KT 35/18 A3005 RMK A01 T03470184  RH  038%=      5-min Rain = 0
KSW1 142227Z 07011KT 35/18 A3005 RMK A01 T03450184  RH  038%=      5-min Rain = 0
KSW1 142228Z 09010KT 35/18 A3005 RMK A01 T03480183  RH  038%=      5-min Rain = 0
KSW1 142229Z 09010KT 35/18 A3005 RMK A01 T03480182  RH  037%=      5-min Rain = 0
KSW1 142230Z 09008KT 35/18 A3005 RMK A01 T03460183  RH  038%=      5-min Rain = 0
KSW1 142231Z 05010KT 35/18 A3005 RMK A01 T03450184  RH  039%=      5-min Rain = 0
KSW1 142232Z 04009KT 35/18 A3005 RMK A01 T03460184  RH  039%=      5-min Rain = 0
KSW1 142233Z 02008KT 35/19 A3005 RMK A01 T03450185  RH  039%=      5-min Rain = 0
KSW1 142234Z 01009KT 34/18 A3004 RMK A01 T03420184  RH  039%=      5-min Rain = 0
KSW1 142235Z 02007KT 34/19 A3004 RMK A01 T03420185  RH  039%=      5-min Rain = 0
KSW1 142236Z 03012G17KT 34/19 A3004 RMK A01 T03430186  RH  039%=      5-min Rain = 0
KSW1 142237Z 07010KT 35/18 A3004 RMK A01 T03470184  RH  038%=      5-min Rain = 0
KSW1 142238Z 06012KT 35/18 A3004 RMK A01 T03480183  RH  038%=      5-min Rain = 0
KSW1 142239Z 06008KT 35/18 A3004 RMK A01 T03460182  RH  038%=      5-min Rain = 0
KSW1 142240Z 05008KT 34/18 A3004 RMK A01 T03430183  RH  039%=      5-min Rain = 0
KSW1 142241Z 05007KT 34/18 A3004 RMK A01 T03430183  RH  039%=      5-min Rain = 0
KSW1 142242Z 03006KT 34/18 A3004 RMK A01 T03440184  RH  039%=      5-min Rain = 0
KSW1 142243Z 06009KT 35/18 A3004 RMK A01 T03450184  RH  038%=      5-min Rain = 0
KSW1 142244Z 06009KT 35/18 A3004 RMK A01 T03460182  RH  038%=      5-min Rain = 0
KSW1 142245Z 07011KT 35/18 A3004 RMK A01 T03450182  RH  038%=      5-min Rain = 0
KSW1 142246Z 09010KT 35/18 A3004 RMK A01 T03470181  RH  038%=      5-min Rain = 0
KSW1 142247Z 08007KT 35/18 A3004 RMK A01 T03470177  RH  037%=      5-min Rain = 0
KSW1 142248Z 07007KT 35/18 A3004 RMK A01 T03450177  RH  037%=      5-min Rain = 0
KSW1 142249Z 08009KT 35/18 A3004 RMK A01 T03450179  RH  037%=      5-min Rain = 0
KSW1 142250Z 08008KT 34/18 A3004 RMK A01 T03440182  RH  038%=      5-min Rain = 0
KSW1 142251Z 08007KT 34/18 A3004 RMK A01 T03420182  RH  039%=      5-min Rain = 0
KSW1 142252Z 09005KT 34/18 A3004 RMK A01 T03430182  RH  038%=      5-min Rain = 0
KSW1 142253Z 06004KT 35/18 A3004 RMK A01 T03460184  RH  038%=      5-min Rain = 0
KSW1 142254Z 09005KT 35/18 A3004 RMK A01 T03450183  RH  038%=      5-min Rain = 0
KSW1 142255Z 08008KT 35/18 A3004 RMK A01 T03450181  RH  038%=      5-min Rain = 0
KSW1 142256Z 06009KT 35/18 A3004 RMK A01 T03460179  RH  037%=      5-min Rain = 0
KSW1 142257Z 06010KT 35/18 A3004 RMK A01 T03480178  RH  037%=      5-min Rain = 0
KSW1 142258Z 06011KT 35/18 A3004 RMK A01 T03480176  RH  036%=      5-min Rain = 0
KSW1 142259Z 07010KT 35/18 A3004 RMK A01 T03450176  RH  037%=      5-min Rain = 0
KSW1 142300Z 09007KT 34/18 A3004 RMK A01 T03430178  RH  038%=      5-min Rain = 0
KSW1 142301Z 07006KT 34/18 A3004 RMK A01 T03430181  RH  038%=      5-min Rain = 0
KSW1 142302Z 07010KT 35/19 A3004 RMK A01 T03470185  RH  038%=      5-min Rain = 0
KSW1 142303Z 08011KT 35/18 A3004 RMK A01 T03500184  RH  038%=      5-min Rain = 0
KSW1 142304Z 08009KT 35/18 A3004 RMK A01 T03500184  RH  037%=      5-min Rain = 0
KSW1 142305Z 07011KT 35/18 A3004 RMK A01 T03500182  RH  037%=      5-min Rain = 0
KSW1 142306Z 06011KT 35/18 A3004 RMK A01 T03490183  RH  037%=      5-min Rain = 0
KSW1 142307Z 05011KT 35/18 A3004 RMK A01 T03460181  RH  038%=      5-min Rain = 0
KSW1 142308Z 06010KT 34/18 A3004 RMK A01 T03430181  RH  038%=      5-min Rain = 0
KSW1 142309Z 07005KT 34/18 A3004 RMK A01 T03400181  RH  039%=      5-min Rain = 0
KSW1 142310Z 04003KT 34/18 A3004 RMK A01 T03400181  RH  039%=      5-min Rain = 0
KSW1 142311Z 02005KT 34/18 A3004 RMK A01 T03420182  RH  039%=      5-min Rain = 0
KSW1 142312Z 03007G12KT 34/18 A3004 RMK A01 T03430182  RH  038%=      5-min Rain = 0
KSW1 142313Z 04009KT 34/18 A3004 RMK A01 T03420181  RH  039%=      5-min Rain = 0
KSW1 142314Z 05008KT 34/18 A3004 RMK A01 T03420180  RH  038%=      5-min Rain = 0
KSW1 142315Z 04010KT 34/18 A3004 RMK A01 T03430181  RH  038%=      5-min Rain = 0
KSW1 142316Z 04010KT 34/18 A3004 RMK A01 T03440180  RH  038%=      5-min Rain = 0
KSW1 142317Z 03007KT 34/18 A3004 RMK A01 T03430179  RH  038%=      5-min Rain = 0
KSW1 142318Z 04007KT 34/18 A3004 RMK A01 T03430179  RH  038%=      5-min Rain = 0
KSW1 142319Z 04010KT 34/18 A3004 RMK A01 T03440179  RH  038%=      5-min Rain = 0
KSW1 142320Z 04007KT 34/18 A3004 RMK A01 T03440175  RH  037%=      5-min Rain = 0
KSW1 142321Z 05007KT 34/18 A3004 RMK A01 T03430175  RH  037%=      5-min Rain = 0
KSW1 142322Z 06006KT 34/18 A3004 RMK A01 T03430175  RH  037%=      5-min Rain = 0
KSW1 142323Z 05007KT 34/18 A3004 RMK A01 T03440178  RH  037%=      5-min Rain = 0
KSW1 142324Z 06006G13KT 34/18 A3004 RMK A01 T03440180  RH  038%=      5-min Rain = 0
KSW1 142325Z 06012KT 34/18 A3004 RMK A01 T03440181  RH  038%=      5-min Rain = 0
KSW1 142326Z 06010KT 35/18 A3004 RMK A01 T03450181  RH  038%=      5-min Rain = 0
KSW1 142327Z 04010KT 34/18 A3004 RMK A01 T03440180  RH  038%=      5-min Rain = 0
KSW1 142328Z 04010KT 34/18 A3004 RMK A01 T03430179  RH  038%=      5-min Rain = 0
KSW1 142329Z 04007KT 34/18 A3004 RMK A01 T03420179  RH  038%=      5-min Rain = 0
KSW1 142330Z 06005KT 34/18 A3004 RMK A01 T03410178  RH  038%=      5-min Rain = 0
KSW1 142331Z 02007KT 34/18 A3004 RMK A01 T03400178  RH  038%=      5-min Rain = 0
KSW1 142332Z 01005KT 34/18 A3004 RMK A01 T03400178  RH  038%=      5-min Rain = 0
KSW1 142333Z 04005KT 34/18 A3004 RMK A01 T03400178  RH  038%=      5-min Rain = 0
KSW1 142334Z 04007KT 34/18 A3004 RMK A01 T03420178  RH  038%=      5-min Rain = 0
KSW1 142335Z 04006KT 34/18 A3004 RMK A01 T03430177  RH  037%=      5-min Rain = 0
KSW1 142336Z 04006KT 34/18 A3004 RMK A01 T03430177  RH  037%=      5-min Rain = 0
KSW1 142337Z 04008KT 34/18 A3004 RMK A01 T03430176  RH  037%=      5-min Rain = 0
KSW1 142338Z 06008KT 34/18 A3004 RMK A01 T03420176  RH  037%=      5-min Rain = 0
KSW1 142339Z 06009KT 34/18 A3004 RMK A01 T03430175  RH  037%=      5-min Rain = 0
KSW1 142340Z 09009KT 34/18 A3004 RMK A01 T03430176  RH  037%=      5-min Rain = 0
KSW1 142341Z 08007KT 34/18 A3004 RMK A01 T03420175  RH  037%=      5-min Rain = 0
KSW1 142342Z 07006KT 34/18 A3004 RMK A01 T03420175  RH  037%=      5-min Rain = 0
KSW1 142343Z 08009KT 34/17 A3004 RMK A01 T03420174  RH  037%=      5-min Rain = 0
KSW1 142344Z 05009KT 34/18 A3004 RMK A01 T03430175  RH  037%=      5-min Rain = 0
KSW1 142345Z 05007KT 34/18 A3004 RMK A01 T03440176  RH  037%=      5-min Rain = 0
KSW1 142346Z 05007KT 34/18 A3004 RMK A01 T03420177  RH  038%=      5-min Rain = 0
KSW1 142347Z 05006KT 34/18 A3004 RMK A01 T03410178  RH  038%=      5-min Rain = 0
KSW1 142348Z 04006KT 34/18 A3004 RMK A01 T03400177  RH  038%=      5-min Rain = 0
KSW1 142349Z 04006KT 34/18 A3004 RMK A01 T03400177  RH  038%=      5-min Rain = 0
KSW1 142350Z 05008KT 34/18 A3004 RMK A01 T03420178  RH  038%=      5-min Rain = 0
KSW1 142351Z 05008KT 34/18 A3004 RMK A01 T03440178  RH  037%=      5-min Rain = 0
KSW1 142352Z 06006KT 34/18 A3004 RMK A01 T03420178  RH  038%=      5-min Rain = 0
KSW1 142353Z 06005KT 34/18 A3004 RMK A01 T03420178  RH  038%=      5-min Rain = 0
KSW1 142354Z 04007KT 34/18 A3004 RMK A01 T03420178  RH  038%=      5-min Rain = 0
KSW1 142355Z 05007KT 34/18 A3004 RMK A01 T03420177  RH  038%=      5-min Rain = 0
KSW1 142356Z 05008KT 34/18 A3004 RMK A01 T03400177  RH  038%=      5-min Rain = 0
KSW1 142357Z 05007KT 34/18 A3004 RMK A01 T03390177  RH  038%=      5-min Rain = 0
KSW1 142358Z 05007KT 34/18 A3004 RMK A01 T03400178  RH  038%=      5-min Rain = 0
KSW1 142359Z 05008KT 34/18 A3004 RMK A01 T03410178  RH  038%=      5-min Rain = 0
KSW1 150000Z 05009KT 34/18 A3004 RMK A01 T03420178  RH  038%=      5-min Rain = 0
KSW1 150001Z 07007KT 34/18 A3004 RMK A01 T03420178  RH  038%=      5-min Rain = 0
KSW1 150002Z 06008KT 34/18 A3003 RMK A01 T03400177  RH  038%=      5-min Rain = 0
KSW1 150003Z 05007KT 34/18 A3003 RMK A01 T03390177  RH  038%=      5-min Rain = 0
KSW1 150004Z 05008KT 34/18 A3003 RMK A01 T03390177  RH  038%=      5-min Rain = 0
KSW1 150005Z 05007KT 34/18 A3003 RMK A01 T03390178  RH  039%=      5-min Rain = 0
KSW1 150006Z 05009KT 34/18 A3003 RMK A01 T03390179  RH  039%=      5-min Rain = 0
KSW1 150007Z 07009KT 34/18 A3003 RMK A01 T03400179  RH  039%=      5-min Rain = 0
KSW1 150008Z 07008KT 34/18 A3003 RMK A01 T03400179  RH  039%=      5-min Rain = 0
KSW1 150009Z 06008KT 34/18 A3003 RMK A01 T03390179  RH  039%=      5-min Rain = 0
KSW1 150010Z 05009KT 34/18 A3003 RMK A01 T03380179  RH  039%=      5-min Rain = 0
KSW1 150011Z 06008KT 34/18 A3003 RMK A01 T03370179  RH  039%=      5-min Rain = 0
KSW1 150012Z 06008KT 34/18 A3003 RMK A01 T03360180  RH  040%=      5-min Rain = 0
KSW1 150013Z 06007KT 34/18 A3003 RMK A01 T03360181  RH  040%=      5-min Rain = 0
KSW1 150014Z 07009KT 34/18 A3003 RMK A01 T03360181  RH  040%=      5-min Rain = 0
KSW1 150015Z 07010KT 34/18 A3003 RMK A01 T03360180  RH  040%=      5-min Rain = 0
KSW1 150016Z 07009KT 34/18 A3003 RMK A01 T03360180  RH  040%=      5-min Rain = 0
KSW1 150017Z 06010KT 34/18 A3003 RMK A01 T03370181  RH  040%=      5-min Rain = 0
KSW1 150018Z 06007KT 34/18 A3003 RMK A01 T03350180  RH  040%=      5-min Rain = 0
KSW1 150019Z 06007KT 34/18 A3003 RMK A01 T03350180  RH  040%=      5-min Rain = 0
KSW1 150020Z 06009KT 34/18 A3003 RMK A01 T03350180  RH  040%=      5-min Rain = 0
KSW1 150021Z 04007KT 34/18 A3003 RMK A01 T03350179  RH  040%=      5-min Rain = 0
KSW1 150022Z 04008KT 34/18 A3003 RMK A01 T03350180  RH  040%=      5-min Rain = 0
KSW1 150023Z 04009KT 33/18 A3003 RMK A01 T03340180  RH  040%=      5-min Rain = 0
KSW1 150024Z 05010KT 33/18 A3003 RMK A01 T03340179  RH  040%=      5-min Rain = 0
KSW1 150025Z 05010KT 33/18 A3003 RMK A01 T03340180  RH  040%=      5-min Rain = 0
KSW1 150026Z 08009KT 33/18 A3003 RMK A01 T03330181  RH  040%=      5-min Rain = 0
KSW1 150027Z 08008KT 33/18 A3003 RMK A01 T03340181  RH  040%=      5-min Rain = 0
KSW1 150028Z 06007KT 33/18 A3003 RMK A01 T03340181  RH  040%=      5-min Rain = 0
KSW1 150029Z 05008KT 34/18 A3003 RMK A01 T03350181  RH  040%=      5-min Rain = 0
KSW1 150030Z 05010KT 34/18 A3004 RMK A01 T03350181  RH  040%=      5-min Rain = 0
KSW1 150031Z 05012KT 33/18 A3004 RMK A01 T03340180  RH  040%=      5-min Rain = 0
KSW1 150032Z 06011KT 33/18 A3004 RMK A01 T03320179  RH  040%=      5-min Rain = 0
KSW1 150033Z 06011KT 33/18 A3003 RMK A01 T03310179  RH  040%=      5-min Rain = 0
KSW1 150034Z 07010KT 33/18 A3003 RMK A01 T03310178  RH  040%=      5-min Rain = 0
KSW1 150035Z 06010KT 33/18 A3003 RMK A01 T03300177  RH  040%=      5-min Rain = 0
KSW1 150036Z 06011KT 33/18 A3003 RMK A01 T03310177  RH  040%=      5-min Rain = 0
KSW1 150037Z 06012KT 33/18 A3003 RMK A01 T03300177  RH  040%=      5-min Rain = 0
KSW1 150038Z 06011KT 33/18 A3003 RMK A01 T03290177  RH  040%=      5-min Rain = 0
KSW1 150039Z 07011KT 33/18 A3003 RMK A01 T03290177  RH  041%=      5-min Rain = 0
KSW1 150040Z 07011KT 33/18 A3003 RMK A01 T03290178  RH  041%=      5-min Rain = 0
KSW1 150041Z 06010KT 33/18 A3003 RMK A01 T03290177  RH  040%=      5-min Rain = 0
KSW1 150042Z 05009KT 33/18 A3003 RMK A01 T03290177  RH  040%=      5-min Rain = 0
KSW1 150043Z 05009KT 33/18 A3003 RMK A01 T03290177  RH  040%=      5-min Rain = 0
KSW1 150044Z 04008KT 33/18 A3003 RMK A01 T03290177  RH  041%=      5-min Rain = 0
KSW1 150045Z 05010KT 33/18 A3004 RMK A01 T03290178  RH  041%=      5-min Rain = 0
KSW1 150046Z 05010KT 33/18 A3004 RMK A01 T03280178  RH  041%=      5-min Rain = 0
KSW1 150047Z 05008KT 33/18 A3004 RMK A01 T03280178  RH  041%=      5-min Rain = 0
KSW1 150048Z 05009KT 33/18 A3004 RMK A01 T03280179  RH  041%=      5-min Rain = 0
KSW1 150049Z 05009KT 33/18 A3004 RMK A01 T03270179  RH  041%=      5-min Rain = 0
KSW1 150050Z 05010KT 33/18 A3004 RMK A01 T03270180  RH  042%=      5-min Rain = 0
KSW1 150051Z 05007KT 33/18 A3004 RMK A01 T03270180  RH  042%=      5-min Rain = 0
KSW1 150052Z 05007KT 33/18 A3004 RMK A01 T03260180  RH  042%=      5-min Rain = 0
KSW1 150053Z 07010KT 33/18 A3004 RMK A01 T03260181  RH  042%=      5-min Rain = 0
KSW1 150054Z 06009KT 33/18 A3004 RMK A01 T03260181  RH  042%=      5-min Rain = 0
KSW1 150055Z 05009KT 33/18 A3004 RMK A01 T03250182  RH  043%=      5-min Rain = 0
KSW1 150056Z 06010KT 33/18 A3004 RMK A01 T03250182  RH  043%=      5-min Rain = 0
KSW1 150057Z 06010KT 32/18 A3004 RMK A01 T03240182  RH  043%=      5-min Rain = 0
KSW1 150058Z 06010KT 32/18 A3004 RMK A01 T03230181  RH  043%=      5-min Rain = 0
KSW1 150059Z 06009KT 32/18 A3004 RMK A01 T03230181  RH  043%=      5-min Rain = 0
KSW1 150100Z 05009KT 32/18 A3004 RMK A01 T03230181  RH  043%=      5-min Rain = 0
KSW1 150101Z 06009KT 32/18 A3005 RMK A01 T03220181  RH  043%=      5-min Rain = 0
KSW1 150102Z 06009KT 32/18 A3005 RMK A01 T03220181  RH  043%=      5-min Rain = 0
KSW1 150103Z 06008KT 32/18 A3005 RMK A01 T03220181  RH  043%=      5-min Rain = 0
KSW1 150104Z 05008KT 32/18 A3005 RMK A01 T03210182  RH  043%=      5-min Rain = 0
KSW1 150105Z 05008KT 32/18 A3005 RMK A01 T03210182  RH  044%=      5-min Rain = 0
KSW1 150106Z 05007KT 32/18 A3005 RMK A01 T03200182  RH  044%=      5-min Rain = 0
KSW1 150107Z 06009KT 32/18 A3005 RMK A01 T03200182  RH  044%=      5-min Rain = 0
KSW1 150108Z 05007KT 32/18 A3005 RMK A01 T03200182  RH  044%=      5-min Rain = 0
KSW1 150109Z 06008KT 32/18 A3005 RMK A01 T03190183  RH  044%=      5-min Rain = 0
KSW1 150110Z 06008KT 32/18 A3005 RMK A01 T03190183  RH  044%=      5-min Rain = 0
KSW1 150111Z 05008KT 32/18 A3005 RMK A01 T03180183  RH  044%=      5-min Rain = 0
KSW1 150112Z 05009KT 32/18 A3005 RMK A01 T03180183  RH  045%=      5-min Rain = 0
KSW1 150113Z 05007KT 32/18 A3005 RMK A01 T03180182  RH  044%=      5-min Rain = 0
KSW1 150114Z 05008KT 32/18 A3005 RMK A01 T03170182  RH  045%=      5-min Rain = 0
KSW1 150115Z 05008KT 32/18 A3005 RMK A01 T03170182  RH  045%=      5-min Rain = 0
KSW1 150116Z 05007KT 32/18 A3005 RMK A01 T03170182  RH  045%=      5-min Rain = 0
KSW1 150117Z 05007KT 32/18 A3005 RMK A01 T03160182  RH  045%=      5-min Rain = 0
KSW1 150118Z 04006KT 32/18 A3005 RMK A01 T03160182  RH  045%=      5-min Rain = 0
KSW1 150119Z 05007KT 32/18 A3005 RMK A01 T03150182  RH  045%=      5-min Rain = 0
KSW1 150120Z 05008KT 31/18 A3005 RMK A01 T03140182  RH  045%=      5-min Rain = 0
KSW1 150121Z 06007KT 31/18 A3005 RMK A01 T03140182  RH  045%=      5-min Rain = 0
KSW1 150122Z 05009KT 31/18 A3005 RMK A01 T03140182  RH  045%=      5-min Rain = 0
KSW1 150123Z 06007KT 31/18 A3006 RMK A01 T03130182  RH  046%=      5-min Rain = 0
KSW1 150124Z 05007KT 31/18 A3006 RMK A01 T03130182  RH  046%=      5-min Rain = 0
KSW1 150125Z 05007KT 31/18 A3006 RMK A01 T03130182  RH  046%=      5-min Rain = 0
KSW1 150126Z 05008KT 31/18 A3006 RMK A01 T03120182  RH  046%=      5-min Rain = 0
KSW1 150127Z 05007KT 31/18 A3006 RMK A01 T03120183  RH  046%=      5-min Rain = 0
KSW1 150128Z 04006KT 31/18 A3006 RMK A01 T03110182  RH  046%=      5-min Rain = 0
KSW1 150129Z 04006KT 31/18 A3006 RMK A01 T03100182  RH  046%=      5-min Rain = 0
KSW1 150130Z 04007KT 31/18 A3006 RMK A01 T03100182  RH  047%=      5-min Rain = 0
KSW1 150131Z 04008KT 31/18 A3006 RMK A01 T03090182  RH  047%=      5-min Rain = 0
KSW1 150132Z 04007KT 31/18 A3006 RMK A01 T03090183  RH  047%=      5-min Rain = 0
KSW1 150133Z 04008KT 31/18 A3006 RMK A01 T03080183  RH  047%=      5-min Rain = 0
KSW1 150134Z 04008KT 31/18 A3006 RMK A01 T03080183  RH  047%=      5-min Rain = 0
KSW1 150135Z 04008KT 31/18 A3006 RMK A01 T03080183  RH  047%=      5-min Rain = 0
KSW1 150136Z 05008KT 31/18 A3006 RMK A01 T03080183  RH  047%=      5-min Rain = 0
KSW1 150137Z 05007KT 31/18 A3006 RMK A01 T03070183  RH  047%=      5-min Rain = 0
KSW1 150138Z 04007KT 31/18 A3006 RMK A01 T03070183  RH  048%=      5-min Rain = 0
KSW1 150139Z 05007KT 31/18 A3006 RMK A01 T03060183  RH  048%=      5-min Rain = 0
KSW1 150140Z 05007KT 31/18 A3006 RMK A01 T03060183  RH  048%=      5-min Rain = 0
KSW1 150141Z 05007KT 31/18 A3006 RMK A01 T03050183  RH  048%=      5-min Rain = 0
KSW1 150142Z 05007KT 31/18 A3006 RMK A01 T03050183  RH  048%=      5-min Rain = 0
KSW1 150143Z 05007KT 31/18 A3006 RMK A01 T03050183  RH  048%=      5-min Rain = 0
KSW1 150144Z 05007KT 31/18 A3007 RMK A01 T03050183  RH  048%=      5-min Rain = 0
KSW1 150145Z 05006KT 31/18 A3007 RMK A01 T03050183  RH  048%=      5-min Rain = 0
KSW1 150146Z 05007KT 30/18 A3007 RMK A01 T03040183  RH  048%=      5-min Rain = 0
KSW1 150147Z 05007KT 30/18 A3007 RMK A01 T03040183  RH  048%=      5-min Rain = 0
KSW1 150148Z 05007KT 30/18 A3007 RMK A01 T03030183  RH  049%=      5-min Rain = 0
KSW1 150149Z 05008KT 30/18 A3007 RMK A01 T03030183  RH  049%=      5-min Rain = 0
KSW1 150150Z 05008KT 30/18 A3007 RMK A01 T03030183  RH  049%=      5-min Rain = 0
KSW1 150151Z 05007KT 30/18 A3007 RMK A01 T03030183  RH  049%=      5-min Rain = 0
KSW1 150152Z 05007KT 30/18 A3007 RMK A01 T03030183  RH  049%=      5-min Rain = 0
KSW1 150153Z 04007KT 30/18 A3007 RMK A01 T03020183  RH  049%=      5-min Rain = 0
KSW1 150154Z 05007KT 30/18 A3007 RMK A01 T03030183  RH  049%=      5-min Rain = 0
KSW1 150155Z 05007KT 30/18 A3007 RMK A01 T03020183  RH  049%=      5-min Rain = 0
KSW1 150156Z 05007KT 30/18 A3007 RMK A01 T03020183  RH  049%=      5-min Rain = 0
KSW1 150157Z 05006KT 30/18 A3007 RMK A01 T03010183  RH  049%=      5-min Rain = 0
KSW1 150158Z 05006KT 30/18 A3007 RMK A01 T03000183  RH  049%=      5-min Rain = 0
KSW1 150159Z 05006KT 30/18 A3007 RMK A01 T03000183  RH  050%=      5-min Rain = 0
KSW1 150200Z 05006KT 30/18 A3007 RMK A01 T02990183  RH  050%=      5-min Rain = 0
KSW1 150201Z 05007KT 30/18 A3007 RMK A01 T02980183  RH  050%=      5-min Rain = 0
KSW1 150202Z 05007KT 30/18 A3007 RMK A01 T02980183  RH  050%=      5-min Rain = 0
KSW1 150203Z 05006KT 30/18 A3007 RMK A01 T02970183  RH  050%=      5-min Rain = 0
KSW1 150204Z 05006KT 30/18 A3007 RMK A01 T02970183  RH  050%=      5-min Rain = 0
KSW1 150205Z 05006KT 30/18 A3007 RMK A01 T02960183  RH  051%=      5-min Rain = 0
KSW1 150206Z 05006KT 30/18 A3007 RMK A01 T02950183  RH  051%=      5-min Rain = 0
KSW1 150207Z 05006KT 30/18 A3007 RMK A01 T02950183  RH  051%=      5-min Rain = 0
KSW1 150208Z 05006KT 30/18 A3008 RMK A01 T02950183  RH  051%=      5-min Rain = 0
KSW1 150209Z 05006KT 29/18 A3008 RMK A01 T02940183  RH  051%=      5-min Rain = 0
KSW1 150210Z 05006KT 29/18 A3008 RMK A01 T02940183  RH  051%=      5-min Rain = 0
KSW1 150211Z 05007KT 29/18 A3008 RMK A01 T02940183  RH  051%=      5-min Rain = 0
KSW1 150212Z 05007KT 29/18 A3008 RMK A01 T02930183  RH  052%=      5-min Rain = 0
KSW1 150213Z 05006KT 29/18 A3008 RMK A01 T02930183  RH  052%=      5-min Rain = 0
KSW1 150214Z 05006KT 29/18 A3008 RMK A01 T02920183  RH  052%=      5-min Rain = 0
KSW1 150215Z 05006KT 29/18 A3008 RMK A01 T02920183  RH  052%=      5-min Rain = 0
KSW1 150216Z 05007KT 29/18 A3008 RMK A01 T02920183  RH  052%=      5-min Rain = 0
KSW1 150217Z 05006KT 29/18 A3008 RMK A01 T02910183  RH  052%=      5-min Rain = 0
KSW1 150218Z 05007KT 29/18 A3008 RMK A01 T02910183  RH  052%=      5-min Rain = 0
KSW1 150219Z 05006KT 29/18 A3008 RMK A01 T02910184  RH  052%=      5-min Rain = 0
KSW1 150220Z 05007KT 29/18 A3008 RMK A01 T02900183  RH  052%=      5-min Rain = 0
KSW1 150221Z 05006KT 29/18 A3008 RMK A01 T02900183  RH  053%=      5-min Rain = 0
KSW1 150222Z 05007KT 29/18 A3008 RMK A01 T02900183  RH  053%=      5-min Rain = 0
KSW1 150223Z 05006KT 29/18 A3008 RMK A01 T02890183  RH  053%=      5-min Rain = 0
KSW1 150224Z 05006KT 29/18 A3008 RMK A01 T02890183  RH  053%=      5-min Rain = 0
KSW1 150225Z 05006KT 29/18 A3008 RMK A01 T02890183  RH  053%=      5-min Rain = 0
KSW1 150226Z 05007KT 29/18 A3009 RMK A01 T02880183  RH  053%=      5-min Rain = 0
KSW1 150227Z 05007KT 29/18 A3009 RMK A01 T02880184  RH  053%=      5-min Rain = 0
KSW1 150228Z 05007KT 29/18 A3009 RMK A01 T02870184  RH  053%=      5-min Rain = 0
KSW1 150229Z 05007KT 29/18 A3009 RMK A01 T02870183  RH  054%=      5-min Rain = 0
KSW1 150230Z 05006KT 29/18 A3009 RMK A01 T02870184  RH  054%=      5-min Rain = 0
KSW1 150231Z 05007KT 29/18 A3009 RMK A01 T02870184  RH  054%=      5-min Rain = 0
KSW1 150232Z 05006KT 29/18 A3009 RMK A01 T02860184  RH  054%=      5-min Rain = 0
KSW1 150233Z 05007KT 29/18 A3009 RMK A01 T02860184  RH  054%=      5-min Rain = 0
KSW1 150234Z 05007KT 29/18 A3009 RMK A01 T02860184  RH  054%=      5-min Rain = 0
KSW1 150235Z 05007KT 29/18 A3009 RMK A01 T02850184  RH  054%=      5-min Rain = 0
KSW1 150236Z 05007KT 29/18 A3009 RMK A01 T02850184  RH  054%=      5-min Rain = 0
KSW1 150237Z 05007KT 29/18 A3009 RMK A01 T02850184  RH  054%=      5-min Rain = 0
KSW1 150238Z 05007KT 28/18 A3009 RMK A01 T02840184  RH  055%=      5-min Rain = 0
KSW1 150239Z 05007KT 28/18 A301 RMK A01 T02840184  RH  055%=      5-min Rain = 0
KSW1 150240Z 05007KT 28/18 A301 RMK A01 T02840184  RH  055%=      5-min Rain = 0
KSW1 150241Z 05007KT 28/18 A301 RMK A01 T02840184  RH  055%=      5-min Rain = 0
KSW1 150242Z 05007KT 28/18 A301 RMK A01 T02840184  RH  055%=      5-min Rain = 0
KSW1 150243Z 05007KT 28/19 A301 RMK A01 T02840185  RH  055%=      5-min Rain = 0
KSW1 150244Z 05007KT 28/19 A301 RMK A01 T02840185  RH  055%=      5-min Rain = 0
KSW1 150245Z 05007KT 28/18 A301 RMK A01 T02840184  RH  055%=      5-min Rain = 0
KSW1 150246Z 05007KT 28/18 A301 RMK A01 T02840184  RH  055%=      5-min Rain = 0
KSW1 150247Z 05007KT 28/18 A301 RMK A01 T02830184  RH  055%=      5-min Rain = 0
KSW1 150248Z 05007KT 28/18 A301 RMK A01 T02830184  RH  055%=      5-min Rain = 0
KSW1 150249Z 05008KT 28/18 A301 RMK A01 T02830184  RH  055%=      5-min Rain = 0
KSW1 150250Z 05007KT 28/18 A301 RMK A01 T02830184  RH  055%=      5-min Rain = 0
KSW1 150251Z 06008KT 28/18 A301 RMK A01 T02830184  RH  055%=      5-min Rain = 0
KSW1 150252Z 06007KT 28/18 A301 RMK A01 T02830184  RH  055%=      5-min Rain = 0
KSW1 150253Z 06008KT 28/18 A301 RMK A01 T02830184  RH  055%=      5-min Rain = 0
KSW1 150254Z 06008KT 28/18 A301 RMK A01 T02830184  RH  055%=      5-min Rain = 0
KSW1 150255Z 06008KT 28/18 A301 RMK A01 T02830184  RH  055%=      5-min Rain = 0
KSW1 150256Z 06008KT 28/18 A301 RMK A01 T02830184  RH  055%=      5-min Rain = 0
KSW1 150257Z 06008KT 28/18 A301 RMK A01 T02830184  RH  055%=      5-min Rain = 0
KSW1 150258Z 06008KT 28/18 A301 RMK A01 T02830184  RH  055%=      5-min Rain = 0
KSW1 150259Z 06008KT 28/18 A3011 RMK A01 T02820184  RH  055%=      5-min Rain = 0
KSW1 150300Z 06008KT 28/18 A3011 RMK A01 T02820184  RH  055%=      5-min Rain = 0
KSW1 150301Z 06008KT 28/18 A3011 RMK A01 T02820184  RH  055%=      5-min Rain = 0
KSW1 150302Z 06008KT 28/18 A3011 RMK A01 T02820184  RH  055%=      5-min Rain = 0
KSW1 150303Z 06008KT 28/18 A3011 RMK A01 T02820184  RH  055%=      5-min Rain = 0
KSW1 150304Z 06008KT 28/18 A3011 RMK A01 T02820184  RH  055%=      5-min Rain = 0
KSW1 150305Z 06009KT 28/18 A3011 RMK A01 T02820184  RH  055%=      5-min Rain = 0
KSW1 150306Z 06008KT 28/18 A3011 RMK A01 T02820184  RH  055%=      5-min Rain = 0
KSW1 150307Z 06008KT 28/18 A3011 RMK A01 T02820184  RH  055%=      5-min Rain = 0
KSW1 150308Z 06009KT 28/18 A3011 RMK A01 T02820184  RH  055%=      5-min Rain = 0
KSW1 150309Z 06008KT 28/18 A3011 RMK A01 T02820184  RH  055%=      5-min Rain = 0
KSW1 150310Z 06008KT 28/18 A3011 RMK A01 T02820183  RH  055%=      5-min Rain = 0
KSW1 150311Z 06008KT 28/18 A3011 RMK A01 T02820184  RH  055%=      5-min Rain = 0
KSW1 150312Z 06008KT 28/18 A3011 RMK A01 T02820184  RH  055%=      5-min Rain = 0
KSW1 150313Z 06009KT 28/18 A3011 RMK A01 T02820184  RH  055%=      5-min Rain = 0
KSW1 150314Z 06008KT 28/18 A3011 RMK A01 T02820184  RH  055%=      5-min Rain = 0
KSW1 150315Z 06008KT 28/18 A3011 RMK A01 T02820184  RH  055%=      5-min Rain = 0
KSW1 150316Z 06009KT 28/18 A3011 RMK A01 T02820184  RH  055%=      5-min Rain = 0
KSW1 150317Z 06009KT 28/18 A3011 RMK A01 T02820184  RH  055%=      5-min Rain = 0
KSW1 150318Z 07008KT 28/18 A3011 RMK A01 T02820184  RH  055%=      5-min Rain = 0
KSW1 150319Z 07008KT 28/18 A3011 RMK A01 T02820184  RH  055%=      5-min Rain = 0
KSW1 150320Z 07009KT 28/18 A3011 RMK A01 T02820184  RH  055%=      5-min Rain = 0
KSW1 150321Z 07008KT 28/18 A3011 RMK A01 T02820184  RH  055%=      5-min Rain = 0
KSW1 150322Z 07008KT 28/18 A3012 RMK A01 T02820184  RH  055%=      5-min Rain = 0
KSW1 150323Z 07008KT 28/18 A3012 RMK A01 T02820184  RH  055%=      5-min Rain = 0
KSW1 150324Z 07008KT 28/18 A3012 RMK A01 T02820184  RH  055%=      5-min Rain = 0
KSW1 150325Z 08009KT 28/18 A3012 RMK A01 T02810184  RH  055%=      5-min Rain = 0
KSW1 150326Z 07009KT 28/18 A3012 RMK A01 T02810184  RH  056%=      5-min Rain = 0
KSW1 150327Z 07009KT 28/19 A3012 RMK A01 T02810185  RH  056%=      5-min Rain = 0
KSW1 150328Z 07008KT 28/19 A3012 RMK A01 T02810185  RH  056%=      5-min Rain = 0
KSW1 150329Z 07009KT 28/19 A3012 RMK A01 T02810185  RH  056%=      5-min Rain = 0
KSW1 150330Z 07009KT 28/19 A3012 RMK A01 T02810185  RH  056%=      5-min Rain = 0
KSW1 150331Z 08009KT 28/19 A3012 RMK A01 T02810186  RH  056%=      5-min Rain = 0
KSW1 150332Z 08008KT 28/19 A3012 RMK A01 T02810186  RH  056%=      5-min Rain = 0
KSW1 150333Z 08009KT 28/19 A3012 RMK A01 T02810186  RH  056%=      5-min Rain = 0
KSW1 150334Z 08009KT 28/19 A3012 RMK A01 T02810186  RH  056%=      5-min Rain = 0
KSW1 150335Z 08010KT 28/19 A3012 RMK A01 T02810186  RH  056%=      5-min Rain = 0
KSW1 150336Z 08009KT 28/19 A3012 RMK A01 T02810186  RH  056%=      5-min Rain = 0
KSW1 150337Z 08009KT 28/19 A3012 RMK A01 T02810187  RH  056%=      5-min Rain = 0
KSW1 150338Z 08009KT 28/19 A3012 RMK A01 T02810187  RH  056%=      5-min Rain = 0
KSW1 150339Z 08010KT 28/19 A3012 RMK A01 T02820187  RH  056%=      5-min Rain = 0
KSW1 150340Z 08010KT 28/19 A3012 RMK A01 T02810186  RH  056%=      5-min Rain = 0
KSW1 150341Z 08009KT 28/19 A3012 RMK A01 T02810186  RH  056%=      5-min Rain = 0
KSW1 150342Z 08010KT 28/19 A3012 RMK A01 T02820187  RH  056%=      5-min Rain = 0
KSW1 150343Z 08010KT 28/19 A3012 RMK A01 T02810186  RH  056%=      5-min Rain = 0
KSW1 150344Z 08009KT 28/19 A3012 RMK A01 T02820186  RH  056%=      5-min Rain = 0
KSW1 150345Z 08009KT 28/19 A3012 RMK A01 T02820186  RH  056%=      5-min Rain = 0
KSW1 150346Z 08010KT 28/19 A3012 RMK A01 T02820187  RH  056%=      5-min Rain = 0
KSW1 150347Z 08009KT 28/19 A3012 RMK A01 T02820187  RH  056%=      5-min Rain = 0
KSW1 150348Z 07009KT 28/19 A3012 RMK A01 T02830187  RH  056%=      5-min Rain = 0
KSW1 150349Z 08010KT 28/19 A3012 RMK A01 T02830187  RH  056%=      5-min Rain = 0
KSW1 150350Z 08010KT 28/19 A3012 RMK A01 T02830187  RH  056%=      5-min Rain = 0
KSW1 150351Z 08010KT 28/19 A3012 RMK A01 T02830187  RH  056%=      5-min Rain = 0
KSW1 150352Z 08009KT 28/19 A3012 RMK A01 T02830187  RH  056%=      5-min Rain = 0
KSW1 150353Z 08010KT 28/19 A3012 RMK A01 T02830187  RH  056%=      5-min Rain = 0
KSW1 150354Z 08010KT 28/19 A3012 RMK A01 T02830188  RH  056%=      5-min Rain = 0
KSW1 150355Z 08011KT 28/19 A3012 RMK A01 T02840188  RH  056%=      5-min Rain = 0
KSW1 150356Z 08011KT 28/19 A3012 RMK A01 T02840188  RH  056%=      5-min Rain = 0
KSW1 150357Z 08009KT 29/19 A3012 RMK A01 T02850189  RH  056%=      5-min Rain = 0
KSW1 150358Z 08010KT 29/19 A3012 RMK A01 T02850189  RH  056%=      5-min Rain = 0
KSW1 150359Z 08010KT 29/19 A3012 RMK A01 T02850189  RH  056%=      5-min Rain = 0
KSW1 150400Z 08010KT 29/19 A3012 RMK A01 T02850189  RH  056%=      5-min Rain = 0
KSW1 150401Z 08010KT 29/19 A3012 RMK A01 T02850189  RH  056%=      5-min Rain = 0
KSW1 150402Z 09009KT 29/19 A3012 RMK A01 T02850189  RH  056%=      5-min Rain = 0
KSW1 150403Z 08008KT 29/19 A3012 RMK A01 T02850190  RH  056%=      5-min Rain = 0
KSW1 150404Z 09009KT 29/19 A3012 RMK A01 T02850190  RH  056%=      5-min Rain = 0
KSW1 150405Z 09008KT 29/19 A3012 RMK A01 T02850190  RH  057%=      5-min Rain = 0
KSW1 150406Z 09008KT 29/19 A3012 RMK A01 T02850190  RH  057%=      5-min Rain = 0
KSW1 150407Z 09009KT 28/19 A3012 RMK A01 T02840191  RH  057%=      5-min Rain = 0
KSW1 150408Z 09010KT 28/19 A3012 RMK A01 T02840191  RH  057%=      5-min Rain = 0
KSW1 150409Z 09010KT 28/19 A3012 RMK A01 T02840192  RH  057%=      5-min Rain = 0
KSW1 150410Z 09010KT 28/19 A3012 RMK A01 T02840192  RH  057%=      5-min Rain = 0
KSW1 150411Z 09009KT 28/19 A3012 RMK A01 T02840192  RH  057%=      5-min Rain = 0
KSW1 150412Z 09009KT 28/19 A3012 RMK A01 T02840192  RH  057%=      5-min Rain = 0
KSW1 150413Z 10009KT 28/19 A3012 RMK A01 T02840192  RH  057%=      5-min Rain = 0
KSW1 150414Z 10009KT 28/19 A3012 RMK A01 T02840193  RH  058%=      5-min Rain = 0
KSW1 150415Z 10008KT 28/19 A3012 RMK A01 T02830193  RH  058%=      5-min Rain = 0
KSW1 150416Z 10009KT 28/19 A3012 RMK A01 T02830193  RH  058%=      5-min Rain = 0
KSW1 150417Z 10009KT 28/19 A3012 RMK A01 T02830193  RH  058%=      5-min Rain = 0
KSW1 150418Z 09009KT 28/19 A3012 RMK A01 T02830194  RH  058%=      5-min Rain = 0
KSW1 150419Z 09009KT 28/19 A3012 RMK A01 T02830194  RH  058%=      5-min Rain = 0
KSW1 150420Z 10012KT 28/19 A3012 RMK A01 T02830194  RH  059%=      5-min Rain = 0
KSW1 150421Z 10008KT 28/19 A3012 RMK A01 T02840194  RH  058%=      5-min Rain = 0
KSW1 150422Z 09008KT 28/19 A3012 RMK A01 T02840194  RH  058%=      5-min Rain = 0
KSW1 150423Z 09010KT 28/19 A3012 RMK A01 T02830194  RH  058%=      5-min Rain = 0
KSW1 150424Z 09009KT 28/19 A3012 RMK A01 T02830194  RH  059%=      5-min Rain = 0
KSW1 150425Z 09010KT 28/20 A3012 RMK A01 T02830195  RH  059%=      5-min Rain = 0
KSW1 150426Z 09010KT 28/19 A3012 RMK A01 T02830194  RH  059%=      5-min Rain = 0
KSW1 150427Z 09009KT 28/19 A3012 RMK A01 T02830194  RH  059%=      5-min Rain = 0
KSW1 150428Z 09009KT 28/19 A3012 RMK A01 T02830194  RH  059%=      5-min Rain = 0
KSW1 150429Z 09008KT 28/19 A3012 RMK A01 T02830194  RH  059%=      5-min Rain = 0
KSW1 150430Z 09010KT 28/20 A3012 RMK A01 T02830195  RH  059%=      5-min Rain = 0
KSW1 150431Z 09008KT 28/20 A3012 RMK A01 T02830195  RH  059%=      5-min Rain = 0
KSW1 150432Z 09008KT 28/20 A3012 RMK A01 T02820195  RH  059%=      5-min Rain = 0
KSW1 150433Z 09008KT 28/20 A3012 RMK A01 T02820195  RH  059%=      5-min Rain = 0
KSW1 150434Z 09009KT 28/20 A3013 RMK A01 T02810195  RH  059%=      5-min Rain = 0
KSW1 150435Z 09009KT 28/20 A3013 RMK A01 T02810195  RH  060%=      5-min Rain = 0
KSW1 150436Z 09009KT 28/20 A3013 RMK A01 T02810195  RH  060%=      5-min Rain = 0
KSW1 150437Z 09010KT 28/20 A3013 RMK A01 T02810195  RH  060%=      5-min Rain = 0
KSW1 150438Z 09009KT 28/20 A3012 RMK A01 T02810195  RH  060%=      5-min Rain = 0
KSW1 150439Z 09008KT 28/20 A3012 RMK A01 T02810195  RH  060%=      5-min Rain = 0
KSW1 150440Z 10009KT 28/20 A3012 RMK A01 T02800196  RH  060%=      5-min Rain = 0
KSW1 150441Z 10011KT 28/20 A3012 RMK A01 T02800196  RH  060%=      5-min Rain = 0
KSW1 150442Z 10009KT 28/20 A3012 RMK A01 T02800196  RH  060%=      5-min Rain = 0
KSW1 150443Z 09010KT 28/20 A3012 RMK A01 T02800196  RH  060%=      5-min Rain = 0
KSW1 150444Z 10010KT 28/20 A3012 RMK A01 T02800196  RH  060%=      5-min Rain = 0
KSW1 150445Z 10010KT 28/20 A3012 RMK A01 T02800196  RH  060%=      5-min Rain = 0
KSW1 150446Z 10010KT 28/20 A3012 RMK A01 T02800196  RH  060%=      5-min Rain = 0
KSW1 150447Z 10010KT 28/20 A3012 RMK A01 T02800196  RH  060%=      5-min Rain = 0
KSW1 150448Z 10010KT 28/20 A3012 RMK A01 T02800196  RH  060%=      5-min Rain = 0
KSW1 150449Z 10011KT 28/20 A3012 RMK A01 T02790196  RH  061%=      5-min Rain = 0
KSW1 150450Z 10013KT 28/20 A3012 RMK A01 T02790197  RH  061%=      5-min Rain = 0
KSW1 150451Z 10011KT 28/20 A3012 RMK A01 T02800197  RH  061%=      5-min Rain = 0
KSW1 150452Z 10010KT 28/20 A3012 RMK A01 T02800196  RH  061%=      5-min Rain = 0
KSW1 150453Z 10010KT 28/20 A3012 RMK A01 T02790196  RH  061%=      5-min Rain = 0
KSW1 150454Z 10011KT 28/20 A3012 RMK A01 T02790197  RH  061%=      5-min Rain = 0
KSW1 150455Z 10009KT 28/20 A3012 RMK A01 T02790197  RH  061%=      5-min Rain = 0
KSW1 150456Z 10010KT 28/20 A3012 RMK A01 T02780196  RH  061%=      5-min Rain = 0
KSW1 150457Z 10009KT 28/20 A3012 RMK A01 T02780197  RH  061%=      5-min Rain = 0
KSW1 150458Z 10010KT 28/20 A3012 RMK A01 T02770197  RH  061%=      5-min Rain = 0
KSW1 150459Z 10009KT 28/20 A3012 RMK A01 T02770197  RH  062%=      5-min Rain = 0

Page generated in 0.1299 seconds.